<?xml version="1.0" encoding="UTF-8" standalone="no" ?>
<gpx xmlns="http://www.topografix.com/GPX/1/1" xmlns:xsi="http://www.w3.org/2001/XMLSchema-instance" xsi:schemaLocation="http://www.topografix.com/GPX/1/1 http://www.topografix.com/GPX/1/1/gpx.xsd" version="1.1" creator="VisuGPX - https://www.visugpx.com">
  <metadata>
    <name>GR65 d\'Estaing à Golinhac</name>
    <desc><![CDATA[Sur le chemin de Saint Jacques de Compostelle
Etape de transition]]></desc>
  </metadata>
  <trk>
    <name><![CDATA[ACTIVE LOG092211]]></name>
    <trkseg>
      <trkpt lat="44.55358" lon="2.67231">
        <ele>346.395</ele>
        <time>2013-06-21T07:22:09Z</time>
      </trkpt>
      <trkpt lat="44.55357" lon="2.67232">
        <ele>346.395</ele>
        <time>2013-06-21T07:22:10Z</time>
      </trkpt>
      <trkpt lat="44.55357" lon="2.67232">
        <ele>342.857</ele>
        <time>2013-06-21T07:22:11Z</time>
      </trkpt>
      <trkpt lat="44.55349" lon="2.67225">
        <ele>342.078</ele>
        <time>2013-06-21T07:22:23Z</time>
      </trkpt>
      <trkpt lat="44.55348" lon="2.67221">
        <ele>342.152</ele>
        <time>2013-06-21T07:22:25Z</time>
      </trkpt>
      <trkpt lat="44.55344" lon="2.67217">
        <ele>341.497</ele>
        <time>2013-06-21T07:22:28Z</time>
      </trkpt>
      <trkpt lat="44.55342" lon="2.6719">
        <ele>342.169</ele>
        <time>2013-06-21T07:22:45Z</time>
      </trkpt>
      <trkpt lat="44.55342" lon="2.67184">
        <ele>341.648</ele>
        <time>2013-06-21T07:22:56Z</time>
      </trkpt>
      <trkpt lat="44.55342" lon="2.67182">
        <ele>338.526</ele>
        <time>2013-06-21T07:27:50Z</time>
      </trkpt>
      <trkpt lat="44.55343" lon="2.67184">
        <ele>337.485</ele>
        <time>2013-06-21T07:30:43Z</time>
      </trkpt>
      <trkpt lat="44.55329" lon="2.67185">
        <ele>339.962</ele>
        <time>2013-06-21T07:30:56Z</time>
      </trkpt>
      <trkpt lat="44.55327" lon="2.67186">
        <ele>338.643</ele>
        <time>2013-06-21T07:30:57Z</time>
      </trkpt>
      <trkpt lat="44.55324" lon="2.67186">
        <ele>338.776</ele>
        <time>2013-06-21T07:31:00Z</time>
      </trkpt>
      <trkpt lat="44.55315" lon="2.67186">
        <ele>338.861</ele>
        <time>2013-06-21T07:31:07Z</time>
      </trkpt>
      <trkpt lat="44.553" lon="2.67186">
        <ele>338.78</ele>
        <time>2013-06-21T07:31:18Z</time>
      </trkpt>
      <trkpt lat="44.55297" lon="2.67187">
        <ele>339.262</ele>
        <time>2013-06-21T07:31:22Z</time>
      </trkpt>
      <trkpt lat="44.55289" lon="2.67191">
        <ele>338.478</ele>
        <time>2013-06-21T07:31:36Z</time>
      </trkpt>
      <trkpt lat="44.55289" lon="2.67192">
        <ele>338.674</ele>
        <time>2013-06-21T07:31:43Z</time>
      </trkpt>
      <trkpt lat="44.55291" lon="2.67197">
        <ele>339.717</ele>
        <time>2013-06-21T07:32:23Z</time>
      </trkpt>
      <trkpt lat="44.55293" lon="2.67196">
        <ele>336.65</ele>
        <time>2013-06-21T07:32:43Z</time>
      </trkpt>
      <trkpt lat="44.55293" lon="2.67196">
        <ele>342.161</ele>
        <time>2013-06-21T07:32:44Z</time>
      </trkpt>
      <trkpt lat="44.55293" lon="2.67195">
        <ele>339.952</ele>
        <time>2013-06-21T07:32:47Z</time>
      </trkpt>
      <trkpt lat="44.55282" lon="2.67197">
        <ele>339.097</ele>
        <time>2013-06-21T07:33:04Z</time>
      </trkpt>
      <trkpt lat="44.55252" lon="2.67203">
        <ele>339.693</ele>
        <time>2013-06-21T07:33:33Z</time>
      </trkpt>
      <trkpt lat="44.55227" lon="2.67204">
        <ele>339.669</ele>
        <time>2013-06-21T07:33:58Z</time>
      </trkpt>
      <trkpt lat="44.55222" lon="2.67205">
        <ele>340.654</ele>
        <time>2013-06-21T07:34:03Z</time>
      </trkpt>
      <trkpt lat="44.55209" lon="2.67183">
        <ele>340.472</ele>
        <time>2013-06-21T07:34:24Z</time>
      </trkpt>
      <trkpt lat="44.55192" lon="2.67161">
        <ele>339.385</ele>
        <time>2013-06-21T07:34:45Z</time>
      </trkpt>
      <trkpt lat="44.55168" lon="2.67144">
        <ele>337.857</ele>
        <time>2013-06-21T07:35:10Z</time>
      </trkpt>
      <trkpt lat="44.55136" lon="2.6713">
        <ele>336.652</ele>
        <time>2013-06-21T07:35:41Z</time>
      </trkpt>
      <trkpt lat="44.55133" lon="2.67129">
        <ele>335.364</ele>
        <time>2013-06-21T07:35:44Z</time>
      </trkpt>
      <trkpt lat="44.55107" lon="2.67131">
        <ele>333.606</ele>
        <time>2013-06-21T07:36:09Z</time>
      </trkpt>
      <trkpt lat="44.55082" lon="2.67141">
        <ele>332.787</ele>
        <time>2013-06-21T07:36:35Z</time>
      </trkpt>
      <trkpt lat="44.55068" lon="2.67146">
        <ele>332.632</ele>
        <time>2013-06-21T07:36:48Z</time>
      </trkpt>
      <trkpt lat="44.55053" lon="2.67144">
        <ele>332.475</ele>
        <time>2013-06-21T07:37:04Z</time>
      </trkpt>
      <trkpt lat="44.55044" lon="2.67141">
        <ele>332.618</ele>
        <time>2013-06-21T07:37:12Z</time>
      </trkpt>
      <trkpt lat="44.5503" lon="2.67124">
        <ele>333.019</ele>
        <time>2013-06-21T07:37:30Z</time>
      </trkpt>
      <trkpt lat="44.55004" lon="2.67117">
        <ele>334.46</ele>
        <time>2013-06-21T07:37:51Z</time>
      </trkpt>
      <trkpt lat="44.54981" lon="2.67118">
        <ele>336.807</ele>
        <time>2013-06-21T07:38:13Z</time>
      </trkpt>
      <trkpt lat="44.54959" lon="2.67133">
        <ele>338.333</ele>
        <time>2013-06-21T07:38:36Z</time>
      </trkpt>
      <trkpt lat="44.54958" lon="2.67133">
        <ele>338.573</ele>
        <time>2013-06-21T07:38:37Z</time>
      </trkpt>
      <trkpt lat="44.54941" lon="2.67149">
        <ele>340.442</ele>
        <time>2013-06-21T07:38:59Z</time>
      </trkpt>
      <trkpt lat="44.5492" lon="2.67163">
        <ele>341.726</ele>
        <time>2013-06-21T07:39:22Z</time>
      </trkpt>
      <trkpt lat="44.54896" lon="2.67178">
        <ele>342.026</ele>
        <time>2013-06-21T07:39:48Z</time>
      </trkpt>
      <trkpt lat="44.54872" lon="2.67185">
        <ele>341.198</ele>
        <time>2013-06-21T07:40:12Z</time>
      </trkpt>
      <trkpt lat="44.54841" lon="2.67192">
        <ele>339.356</ele>
        <time>2013-06-21T07:40:41Z</time>
      </trkpt>
      <trkpt lat="44.5482" lon="2.67195">
        <ele>339.071</ele>
        <time>2013-06-21T07:41:01Z</time>
      </trkpt>
      <trkpt lat="44.54798" lon="2.67185">
        <ele>339.001</ele>
        <time>2013-06-21T07:41:23Z</time>
      </trkpt>
      <trkpt lat="44.54783" lon="2.67171">
        <ele>340.42</ele>
        <time>2013-06-21T07:41:42Z</time>
      </trkpt>
      <trkpt lat="44.5477" lon="2.67157">
        <ele>342.146</ele>
        <time>2013-06-21T07:42:00Z</time>
      </trkpt>
      <trkpt lat="44.54757" lon="2.67142">
        <ele>342.936</ele>
        <time>2013-06-21T07:42:19Z</time>
      </trkpt>
      <trkpt lat="44.54745" lon="2.67126">
        <ele>345.126</ele>
        <time>2013-06-21T07:42:37Z</time>
      </trkpt>
      <trkpt lat="44.54733" lon="2.67111">
        <ele>346.502</ele>
        <time>2013-06-21T07:42:57Z</time>
      </trkpt>
      <trkpt lat="44.54726" lon="2.67101">
        <ele>347.396</ele>
        <time>2013-06-21T07:43:08Z</time>
      </trkpt>
      <trkpt lat="44.54715" lon="2.67079">
        <ele>348.759</ele>
        <time>2013-06-21T07:43:28Z</time>
      </trkpt>
      <trkpt lat="44.54706" lon="2.67064">
        <ele>349.819</ele>
        <time>2013-06-21T07:43:46Z</time>
      </trkpt>
      <trkpt lat="44.54703" lon="2.67044">
        <ele>349.98</ele>
        <time>2013-06-21T07:44:02Z</time>
      </trkpt>
      <trkpt lat="44.54708" lon="2.67014">
        <ele>351.179</ele>
        <time>2013-06-21T07:44:22Z</time>
      </trkpt>
      <trkpt lat="44.5471" lon="2.67004">
        <ele>350.138</ele>
        <time>2013-06-21T07:44:41Z</time>
      </trkpt>
      <trkpt lat="44.54709" lon="2.67005">
        <ele>351.017</ele>
        <time>2013-06-21T07:45:14Z</time>
      </trkpt>
      <trkpt lat="44.54712" lon="2.66986">
        <ele>349.421</ele>
        <time>2013-06-21T07:45:55Z</time>
      </trkpt>
      <trkpt lat="44.54709" lon="2.66968">
        <ele>347.799</ele>
        <time>2013-06-21T07:46:12Z</time>
      </trkpt>
      <trkpt lat="44.54709" lon="2.66947">
        <ele>345.979</ele>
        <time>2013-06-21T07:46:29Z</time>
      </trkpt>
      <trkpt lat="44.5471" lon="2.6693">
        <ele>343.61</ele>
        <time>2013-06-21T07:46:41Z</time>
      </trkpt>
      <trkpt lat="44.54707" lon="2.66898">
        <ele>341.511</ele>
        <time>2013-06-21T07:47:05Z</time>
      </trkpt>
      <trkpt lat="44.54702" lon="2.66859">
        <ele>339.14</ele>
        <time>2013-06-21T07:47:31Z</time>
      </trkpt>
      <trkpt lat="44.54697" lon="2.66837">
        <ele>335.902</ele>
        <time>2013-06-21T07:47:48Z</time>
      </trkpt>
      <trkpt lat="44.54692" lon="2.66813">
        <ele>333.006</ele>
        <time>2013-06-21T07:48:07Z</time>
      </trkpt>
      <trkpt lat="44.54685" lon="2.66782">
        <ele>330.903</ele>
        <time>2013-06-21T07:48:28Z</time>
      </trkpt>
      <trkpt lat="44.54684" lon="2.66762">
        <ele>330.374</ele>
        <time>2013-06-21T07:48:42Z</time>
      </trkpt>
      <trkpt lat="44.54691" lon="2.66723">
        <ele>329.383</ele>
        <time>2013-06-21T07:49:06Z</time>
      </trkpt>
      <trkpt lat="44.54702" lon="2.66699">
        <ele>330.148</ele>
        <time>2013-06-21T07:49:25Z</time>
      </trkpt>
      <trkpt lat="44.54707" lon="2.66674">
        <ele>331.012</ele>
        <time>2013-06-21T07:49:45Z</time>
      </trkpt>
      <trkpt lat="44.54716" lon="2.66654">
        <ele>331.01</ele>
        <time>2013-06-21T07:50:02Z</time>
      </trkpt>
      <trkpt lat="44.54736" lon="2.66627">
        <ele>331.37</ele>
        <time>2013-06-21T07:50:23Z</time>
      </trkpt>
      <trkpt lat="44.54742" lon="2.66619">
        <ele>331.704</ele>
        <time>2013-06-21T07:50:31Z</time>
      </trkpt>
      <trkpt lat="44.54766" lon="2.666">
        <ele>330.97</ele>
        <time>2013-06-21T07:50:56Z</time>
      </trkpt>
      <trkpt lat="44.54779" lon="2.66597">
        <ele>331.248</ele>
        <time>2013-06-21T07:51:09Z</time>
      </trkpt>
      <trkpt lat="44.54808" lon="2.66597">
        <ele>330.301</ele>
        <time>2013-06-21T07:51:37Z</time>
      </trkpt>
      <trkpt lat="44.54833" lon="2.66603">
        <ele>329.6</ele>
        <time>2013-06-21T07:52:02Z</time>
      </trkpt>
      <trkpt lat="44.54855" lon="2.6661">
        <ele>329.079</ele>
        <time>2013-06-21T07:52:24Z</time>
      </trkpt>
      <trkpt lat="44.54868" lon="2.66609">
        <ele>327.815</ele>
        <time>2013-06-21T07:52:37Z</time>
      </trkpt>
      <trkpt lat="44.54887" lon="2.66614">
        <ele>327.729</ele>
        <time>2013-06-21T07:52:55Z</time>
      </trkpt>
      <trkpt lat="44.54903" lon="2.66617">
        <ele>327.123</ele>
        <time>2013-06-21T07:53:11Z</time>
      </trkpt>
      <trkpt lat="44.54915" lon="2.66617">
        <ele>327.336</ele>
        <time>2013-06-21T07:53:22Z</time>
      </trkpt>
      <trkpt lat="44.54939" lon="2.6661">
        <ele>326.826</ele>
        <time>2013-06-21T07:53:44Z</time>
      </trkpt>
      <trkpt lat="44.54963" lon="2.66602">
        <ele>327.294</ele>
        <time>2013-06-21T07:54:06Z</time>
      </trkpt>
      <trkpt lat="44.54981" lon="2.66593">
        <ele>327.546</ele>
        <time>2013-06-21T07:54:25Z</time>
      </trkpt>
      <trkpt lat="44.55" lon="2.66574">
        <ele>327.193</ele>
        <time>2013-06-21T07:54:47Z</time>
      </trkpt>
      <trkpt lat="44.55019" lon="2.66554">
        <ele>327.406</ele>
        <time>2013-06-21T07:55:07Z</time>
      </trkpt>
      <trkpt lat="44.55039" lon="2.66541">
        <ele>327.431</ele>
        <time>2013-06-21T07:55:27Z</time>
      </trkpt>
      <trkpt lat="44.55059" lon="2.66538">
        <ele>327.338</ele>
        <time>2013-06-21T07:55:47Z</time>
      </trkpt>
      <trkpt lat="44.5508" lon="2.66527">
        <ele>327.729</ele>
        <time>2013-06-21T07:56:09Z</time>
      </trkpt>
      <trkpt lat="44.55091" lon="2.66521">
        <ele>328.07</ele>
        <time>2013-06-21T07:56:19Z</time>
      </trkpt>
      <trkpt lat="44.55103" lon="2.66512">
        <ele>327.846</ele>
        <time>2013-06-21T07:56:30Z</time>
      </trkpt>
      <trkpt lat="44.55126" lon="2.66508">
        <ele>328.539</ele>
        <time>2013-06-21T07:56:51Z</time>
      </trkpt>
      <trkpt lat="44.55134" lon="2.66509">
        <ele>328.162</ele>
        <time>2013-06-21T07:56:59Z</time>
      </trkpt>
      <trkpt lat="44.55155" lon="2.66501">
        <ele>328.478</ele>
        <time>2013-06-21T07:57:18Z</time>
      </trkpt>
      <trkpt lat="44.55174" lon="2.66488">
        <ele>328.53</ele>
        <time>2013-06-21T07:57:37Z</time>
      </trkpt>
      <trkpt lat="44.55187" lon="2.66472">
        <ele>328.148</ele>
        <time>2013-06-21T07:57:56Z</time>
      </trkpt>
      <trkpt lat="44.55202" lon="2.66453">
        <ele>327.756</ele>
        <time>2013-06-21T07:58:14Z</time>
      </trkpt>
      <trkpt lat="44.55216" lon="2.66441">
        <ele>327.778</ele>
        <time>2013-06-21T07:58:31Z</time>
      </trkpt>
      <trkpt lat="44.55229" lon="2.66427">
        <ele>327.351</ele>
        <time>2013-06-21T07:58:44Z</time>
      </trkpt>
      <trkpt lat="44.55243" lon="2.66415">
        <ele>327.485</ele>
        <time>2013-06-21T07:59:00Z</time>
      </trkpt>
      <trkpt lat="44.55259" lon="2.66404">
        <ele>327.384</ele>
        <time>2013-06-21T07:59:18Z</time>
      </trkpt>
      <trkpt lat="44.55276" lon="2.66387">
        <ele>327.638</ele>
        <time>2013-06-21T07:59:36Z</time>
      </trkpt>
      <trkpt lat="44.5529" lon="2.66377">
        <ele>327.4</ele>
        <time>2013-06-21T07:59:52Z</time>
      </trkpt>
      <trkpt lat="44.553" lon="2.66369">
        <ele>327.924</ele>
        <time>2013-06-21T08:00:01Z</time>
      </trkpt>
      <trkpt lat="44.55319" lon="2.66352">
        <ele>327.881</ele>
        <time>2013-06-21T08:00:22Z</time>
      </trkpt>
      <trkpt lat="44.55334" lon="2.66339">
        <ele>328.994</ele>
        <time>2013-06-21T08:00:39Z</time>
      </trkpt>
      <trkpt lat="44.55348" lon="2.66324">
        <ele>328.46</ele>
        <time>2013-06-21T08:00:54Z</time>
      </trkpt>
      <trkpt lat="44.55363" lon="2.66313">
        <ele>329.428</ele>
        <time>2013-06-21T08:01:11Z</time>
      </trkpt>
      <trkpt lat="44.55381" lon="2.66296">
        <ele>329.48</ele>
        <time>2013-06-21T08:01:30Z</time>
      </trkpt>
      <trkpt lat="44.55392" lon="2.66288">
        <ele>329.882</ele>
        <time>2013-06-21T08:01:43Z</time>
      </trkpt>
      <trkpt lat="44.55414" lon="2.6628">
        <ele>331.42</ele>
        <time>2013-06-21T08:02:05Z</time>
      </trkpt>
      <trkpt lat="44.55418" lon="2.66278">
        <ele>331.824</ele>
        <time>2013-06-21T08:02:22Z</time>
      </trkpt>
      <trkpt lat="44.55418" lon="2.66263">
        <ele>330.226</ele>
        <time>2013-06-21T08:03:58Z</time>
      </trkpt>
      <trkpt lat="44.55424" lon="2.66254">
        <ele>330.318</ele>
        <time>2013-06-21T08:04:13Z</time>
      </trkpt>
      <trkpt lat="44.55432" lon="2.66252">
        <ele>330.177</ele>
        <time>2013-06-21T08:04:23Z</time>
      </trkpt>
      <trkpt lat="44.55451" lon="2.66259">
        <ele>331.615</ele>
        <time>2013-06-21T08:04:43Z</time>
      </trkpt>
      <trkpt lat="44.5546" lon="2.66261">
        <ele>332.245</ele>
        <time>2013-06-21T08:04:59Z</time>
      </trkpt>
      <trkpt lat="44.55463" lon="2.66254">
        <ele>332.361</ele>
        <time>2013-06-21T08:05:20Z</time>
      </trkpt>
      <trkpt lat="44.5548" lon="2.66242">
        <ele>333.6</ele>
        <time>2013-06-21T08:05:39Z</time>
      </trkpt>
      <trkpt lat="44.55501" lon="2.66227">
        <ele>334.79</ele>
        <time>2013-06-21T08:06:03Z</time>
      </trkpt>
      <trkpt lat="44.55514" lon="2.66214">
        <ele>335.393</ele>
        <time>2013-06-21T08:06:28Z</time>
      </trkpt>
      <trkpt lat="44.55528" lon="2.66204">
        <ele>335.88</ele>
        <time>2013-06-21T08:06:46Z</time>
      </trkpt>
      <trkpt lat="44.55531" lon="2.66202">
        <ele>335.758</ele>
        <time>2013-06-21T08:06:49Z</time>
      </trkpt>
      <trkpt lat="44.55542" lon="2.66194">
        <ele>336.268</ele>
        <time>2013-06-21T08:07:01Z</time>
      </trkpt>
      <trkpt lat="44.55554" lon="2.66183">
        <ele>335.593</ele>
        <time>2013-06-21T08:07:16Z</time>
      </trkpt>
      <trkpt lat="44.55573" lon="2.66174">
        <ele>334.69</ele>
        <time>2013-06-21T08:07:36Z</time>
      </trkpt>
      <trkpt lat="44.55585" lon="2.66168">
        <ele>334.174</ele>
        <time>2013-06-21T08:07:49Z</time>
      </trkpt>
      <trkpt lat="44.55604" lon="2.66164">
        <ele>332.295</ele>
        <time>2013-06-21T08:08:06Z</time>
      </trkpt>
      <trkpt lat="44.55623" lon="2.66159">
        <ele>330.866</ele>
        <time>2013-06-21T08:08:25Z</time>
      </trkpt>
      <trkpt lat="44.55644" lon="2.6615">
        <ele>329.355</ele>
        <time>2013-06-21T08:08:44Z</time>
      </trkpt>
      <trkpt lat="44.55664" lon="2.66142">
        <ele>329.422</ele>
        <time>2013-06-21T08:09:02Z</time>
      </trkpt>
      <trkpt lat="44.55689" lon="2.66133">
        <ele>328.665</ele>
        <time>2013-06-21T08:09:24Z</time>
      </trkpt>
      <trkpt lat="44.55715" lon="2.66123">
        <ele>327.97</ele>
        <time>2013-06-21T08:09:49Z</time>
      </trkpt>
      <trkpt lat="44.55735" lon="2.66116">
        <ele>327.792</ele>
        <time>2013-06-21T08:10:09Z</time>
      </trkpt>
      <trkpt lat="44.55751" lon="2.66112">
        <ele>326.392</ele>
        <time>2013-06-21T08:10:26Z</time>
      </trkpt>
      <trkpt lat="44.55761" lon="2.6611">
        <ele>327.018</ele>
        <time>2013-06-21T08:10:52Z</time>
      </trkpt>
      <trkpt lat="44.55783" lon="2.66103">
        <ele>326.477</ele>
        <time>2013-06-21T08:11:13Z</time>
      </trkpt>
      <trkpt lat="44.55795" lon="2.66097">
        <ele>326.652</ele>
        <time>2013-06-21T08:11:33Z</time>
      </trkpt>
      <trkpt lat="44.55795" lon="2.66093">
        <ele>325.98</ele>
        <time>2013-06-21T08:12:01Z</time>
      </trkpt>
      <trkpt lat="44.55794" lon="2.66091">
        <ele>325.583</ele>
        <time>2013-06-21T08:12:19Z</time>
      </trkpt>
      <trkpt lat="44.55784" lon="2.66105">
        <ele>326.406</ele>
        <time>2013-06-21T08:13:26Z</time>
      </trkpt>
      <trkpt lat="44.55788" lon="2.66096">
        <ele>325.834</ele>
        <time>2013-06-21T08:14:07Z</time>
      </trkpt>
      <trkpt lat="44.55796" lon="2.66092">
        <ele>325.468</ele>
        <time>2013-06-21T08:14:46Z</time>
      </trkpt>
      <trkpt lat="44.55796" lon="2.66092">
        <ele>324.869</ele>
        <time>2013-06-21T08:17:08Z</time>
      </trkpt>
      <trkpt lat="44.55788" lon="2.66109">
        <ele>325.903</ele>
        <time>2013-06-21T08:18:54Z</time>
      </trkpt>
      <trkpt lat="44.55792" lon="2.66101">
        <ele>326.261</ele>
        <time>2013-06-21T08:19:30Z</time>
      </trkpt>
      <trkpt lat="44.55793" lon="2.66099">
        <ele>326.021</ele>
        <time>2013-06-21T08:20:01Z</time>
      </trkpt>
      <trkpt lat="44.55793" lon="2.66097">
        <ele>326.088</ele>
        <time>2013-06-21T08:20:26Z</time>
      </trkpt>
      <trkpt lat="44.55794" lon="2.66091">
        <ele>325.917</ele>
        <time>2013-06-21T08:20:58Z</time>
      </trkpt>
      <trkpt lat="44.55808" lon="2.66085">
        <ele>325.2</ele>
        <time>2013-06-21T08:21:19Z</time>
      </trkpt>
      <trkpt lat="44.55828" lon="2.66079">
        <ele>325.046</ele>
        <time>2013-06-21T08:21:39Z</time>
      </trkpt>
      <trkpt lat="44.55849" lon="2.66071">
        <ele>325.363</ele>
        <time>2013-06-21T08:21:59Z</time>
      </trkpt>
      <trkpt lat="44.55867" lon="2.66065">
        <ele>325.015</ele>
        <time>2013-06-21T08:22:16Z</time>
      </trkpt>
      <trkpt lat="44.5589" lon="2.66057">
        <ele>325.341</ele>
        <time>2013-06-21T08:22:37Z</time>
      </trkpt>
      <trkpt lat="44.5591" lon="2.6605">
        <ele>325.777</ele>
        <time>2013-06-21T08:22:55Z</time>
      </trkpt>
      <trkpt lat="44.55927" lon="2.66042">
        <ele>326.088</ele>
        <time>2013-06-21T08:23:12Z</time>
      </trkpt>
      <trkpt lat="44.55946" lon="2.66033">
        <ele>326.567</ele>
        <time>2013-06-21T08:23:31Z</time>
      </trkpt>
      <trkpt lat="44.55963" lon="2.66025">
        <ele>327.321</ele>
        <time>2013-06-21T08:23:48Z</time>
      </trkpt>
      <trkpt lat="44.55978" lon="2.66019">
        <ele>328.417</ele>
        <time>2013-06-21T08:24:04Z</time>
      </trkpt>
      <trkpt lat="44.55993" lon="2.66013">
        <ele>329.615</ele>
        <time>2013-06-21T08:24:18Z</time>
      </trkpt>
      <trkpt lat="44.56011" lon="2.66005">
        <ele>330.034</ele>
        <time>2013-06-21T08:24:36Z</time>
      </trkpt>
      <trkpt lat="44.56037" lon="2.65991">
        <ele>330.554</ele>
        <time>2013-06-21T08:25:01Z</time>
      </trkpt>
      <trkpt lat="44.56068" lon="2.65974">
        <ele>330.865</ele>
        <time>2013-06-21T08:25:32Z</time>
      </trkpt>
      <trkpt lat="44.56098" lon="2.65956">
        <ele>330.97</ele>
        <time>2013-06-21T08:26:02Z</time>
      </trkpt>
      <trkpt lat="44.56117" lon="2.65945">
        <ele>331.307</ele>
        <time>2013-06-21T08:26:22Z</time>
      </trkpt>
      <trkpt lat="44.56129" lon="2.65939">
        <ele>331.415</ele>
        <time>2013-06-21T08:26:34Z</time>
      </trkpt>
      <trkpt lat="44.56152" lon="2.65928">
        <ele>331.153</ele>
        <time>2013-06-21T08:26:55Z</time>
      </trkpt>
      <trkpt lat="44.56169" lon="2.65923">
        <ele>330.647</ele>
        <time>2013-06-21T08:27:11Z</time>
      </trkpt>
      <trkpt lat="44.56193" lon="2.6592">
        <ele>330.575</ele>
        <time>2013-06-21T08:27:33Z</time>
      </trkpt>
      <trkpt lat="44.56227" lon="2.65918">
        <ele>330.121</ele>
        <time>2013-06-21T08:28:03Z</time>
      </trkpt>
      <trkpt lat="44.5626" lon="2.65915">
        <ele>329.695</ele>
        <time>2013-06-21T08:28:34Z</time>
      </trkpt>
      <trkpt lat="44.56287" lon="2.65911">
        <ele>330.785</ele>
        <time>2013-06-21T08:29:00Z</time>
      </trkpt>
      <trkpt lat="44.5632" lon="2.65903">
        <ele>331.485</ele>
        <time>2013-06-21T08:29:32Z</time>
      </trkpt>
      <trkpt lat="44.56344" lon="2.65898">
        <ele>333.334</ele>
        <time>2013-06-21T08:29:57Z</time>
      </trkpt>
      <trkpt lat="44.56366" lon="2.65892">
        <ele>334.79</ele>
        <time>2013-06-21T08:30:22Z</time>
      </trkpt>
      <trkpt lat="44.56387" lon="2.65888">
        <ele>337.395</ele>
        <time>2013-06-21T08:30:45Z</time>
      </trkpt>
      <trkpt lat="44.56406" lon="2.65885">
        <ele>339.523</ele>
        <time>2013-06-21T08:31:09Z</time>
      </trkpt>
      <trkpt lat="44.56417" lon="2.65877">
        <ele>340.085</ele>
        <time>2013-06-21T08:31:26Z</time>
      </trkpt>
      <trkpt lat="44.56411" lon="2.65853">
        <ele>340.963</ele>
        <time>2013-06-21T08:31:47Z</time>
      </trkpt>
      <trkpt lat="44.56394" lon="2.65827">
        <ele>341.294</ele>
        <time>2013-06-21T08:32:12Z</time>
      </trkpt>
      <trkpt lat="44.56389" lon="2.65804">
        <ele>342.146</ele>
        <time>2013-06-21T08:32:30Z</time>
      </trkpt>
      <trkpt lat="44.56382" lon="2.65769">
        <ele>343.95</ele>
        <time>2013-06-21T08:32:56Z</time>
      </trkpt>
      <trkpt lat="44.56378" lon="2.65745">
        <ele>343.989</ele>
        <time>2013-06-21T08:33:14Z</time>
      </trkpt>
      <trkpt lat="44.56375" lon="2.65729">
        <ele>344.321</ele>
        <time>2013-06-21T08:33:25Z</time>
      </trkpt>
      <trkpt lat="44.56376" lon="2.65708">
        <ele>344.872</ele>
        <time>2013-06-21T08:33:39Z</time>
      </trkpt>
      <trkpt lat="44.56374" lon="2.6569">
        <ele>344.42</ele>
        <time>2013-06-21T08:33:51Z</time>
      </trkpt>
      <trkpt lat="44.56371" lon="2.65674">
        <ele>345.441</ele>
        <time>2013-06-21T08:34:02Z</time>
      </trkpt>
      <trkpt lat="44.56374" lon="2.65663">
        <ele>345.298</ele>
        <time>2013-06-21T08:34:12Z</time>
      </trkpt>
      <trkpt lat="44.56373" lon="2.65656">
        <ele>345.379</ele>
        <time>2013-06-21T08:34:18Z</time>
      </trkpt>
      <trkpt lat="44.56376" lon="2.65638">
        <ele>345.667</ele>
        <time>2013-06-21T08:34:31Z</time>
      </trkpt>
      <trkpt lat="44.56378" lon="2.65625">
        <ele>346.344</ele>
        <time>2013-06-21T08:34:41Z</time>
      </trkpt>
      <trkpt lat="44.56381" lon="2.65601">
        <ele>346.408</ele>
        <time>2013-06-21T08:34:57Z</time>
      </trkpt>
      <trkpt lat="44.56377" lon="2.65584">
        <ele>346.492</ele>
        <time>2013-06-21T08:35:08Z</time>
      </trkpt>
      <trkpt lat="44.56382" lon="2.65567">
        <ele>346.498</ele>
        <time>2013-06-21T08:35:21Z</time>
      </trkpt>
      <trkpt lat="44.56375" lon="2.65549">
        <ele>347.036</ele>
        <time>2013-06-21T08:35:34Z</time>
      </trkpt>
      <trkpt lat="44.56374" lon="2.65528">
        <ele>346.696</ele>
        <time>2013-06-21T08:35:48Z</time>
      </trkpt>
      <trkpt lat="44.5638" lon="2.65508">
        <ele>346.6</ele>
        <time>2013-06-21T08:36:05Z</time>
      </trkpt>
      <trkpt lat="44.56391" lon="2.65491">
        <ele>345.778</ele>
        <time>2013-06-21T08:36:25Z</time>
      </trkpt>
      <trkpt lat="44.56402" lon="2.65483">
        <ele>345.934</ele>
        <time>2013-06-21T08:36:43Z</time>
      </trkpt>
      <trkpt lat="44.56408" lon="2.65474">
        <ele>345.314</ele>
        <time>2013-06-21T08:37:09Z</time>
      </trkpt>
      <trkpt lat="44.56412" lon="2.65465">
        <ele>345.534</ele>
        <time>2013-06-21T08:37:20Z</time>
      </trkpt>
      <trkpt lat="44.56409" lon="2.65459">
        <ele>344.853</ele>
        <time>2013-06-21T08:37:41Z</time>
      </trkpt>
      <trkpt lat="44.56414" lon="2.65454">
        <ele>344.426</ele>
        <time>2013-06-21T08:38:06Z</time>
      </trkpt>
      <trkpt lat="44.56418" lon="2.65453">
        <ele>344.634</ele>
        <time>2013-06-21T08:38:29Z</time>
      </trkpt>
      <trkpt lat="44.56422" lon="2.65449">
        <ele>344.33</ele>
        <time>2013-06-21T08:38:58Z</time>
      </trkpt>
      <trkpt lat="44.56421" lon="2.65441">
        <ele>343.66</ele>
        <time>2013-06-21T08:39:12Z</time>
      </trkpt>
      <trkpt lat="44.56422" lon="2.65421">
        <ele>341.938</ele>
        <time>2013-06-21T08:39:28Z</time>
      </trkpt>
      <trkpt lat="44.56423" lon="2.65402">
        <ele>340.72</ele>
        <time>2013-06-21T08:39:44Z</time>
      </trkpt>
      <trkpt lat="44.56429" lon="2.65383">
        <ele>340.091</ele>
        <time>2013-06-21T08:40:00Z</time>
      </trkpt>
      <trkpt lat="44.56425" lon="2.65361">
        <ele>339.592</ele>
        <time>2013-06-21T08:40:19Z</time>
      </trkpt>
      <trkpt lat="44.56419" lon="2.65354">
        <ele>337.973</ele>
        <time>2013-06-21T08:40:27Z</time>
      </trkpt>
      <trkpt lat="44.56401" lon="2.65337">
        <ele>335.747</ele>
        <time>2013-06-21T08:40:50Z</time>
      </trkpt>
      <trkpt lat="44.56388" lon="2.65325">
        <ele>334.592</ele>
        <time>2013-06-21T08:41:06Z</time>
      </trkpt>
      <trkpt lat="44.5637" lon="2.65314">
        <ele>332.53</ele>
        <time>2013-06-21T08:41:27Z</time>
      </trkpt>
      <trkpt lat="44.56361" lon="2.65308">
        <ele>331.289</ele>
        <time>2013-06-21T08:41:42Z</time>
      </trkpt>
      <trkpt lat="44.56355" lon="2.65296">
        <ele>330.63</ele>
        <time>2013-06-21T08:41:54Z</time>
      </trkpt>
      <trkpt lat="44.56352" lon="2.65282">
        <ele>330.012</ele>
        <time>2013-06-21T08:42:03Z</time>
      </trkpt>
      <trkpt lat="44.56358" lon="2.65269">
        <ele>329.36</ele>
        <time>2013-06-21T08:42:11Z</time>
      </trkpt>
      <trkpt lat="44.56361" lon="2.65255">
        <ele>328.347</ele>
        <time>2013-06-21T08:42:21Z</time>
      </trkpt>
      <trkpt lat="44.56373" lon="2.65236">
        <ele>327.768</ele>
        <time>2013-06-21T08:42:35Z</time>
      </trkpt>
      <trkpt lat="44.56373" lon="2.65233">
        <ele>327.661</ele>
        <time>2013-06-21T08:42:37Z</time>
      </trkpt>
      <trkpt lat="44.56381" lon="2.65218">
        <ele>327.056</ele>
        <time>2013-06-21T08:42:48Z</time>
      </trkpt>
      <trkpt lat="44.56379" lon="2.65203">
        <ele>326.74</ele>
        <time>2013-06-21T08:42:59Z</time>
      </trkpt>
      <trkpt lat="44.56376" lon="2.65185">
        <ele>325.677</ele>
        <time>2013-06-21T08:43:12Z</time>
      </trkpt>
      <trkpt lat="44.56366" lon="2.65169">
        <ele>325.585</ele>
        <time>2013-06-21T08:43:23Z</time>
      </trkpt>
      <trkpt lat="44.56366" lon="2.65149">
        <ele>324.941</ele>
        <time>2013-06-21T08:43:35Z</time>
      </trkpt>
      <trkpt lat="44.56373" lon="2.65125">
        <ele>324.194</ele>
        <time>2013-06-21T08:43:50Z</time>
      </trkpt>
      <trkpt lat="44.56378" lon="2.65102">
        <ele>323.15</ele>
        <time>2013-06-21T08:44:07Z</time>
      </trkpt>
      <trkpt lat="44.56387" lon="2.65073">
        <ele>323.447</ele>
        <time>2013-06-21T08:44:28Z</time>
      </trkpt>
      <trkpt lat="44.56385" lon="2.65048">
        <ele>322.913</ele>
        <time>2013-06-21T08:44:44Z</time>
      </trkpt>
      <trkpt lat="44.56376" lon="2.65026">
        <ele>323.33</ele>
        <time>2013-06-21T08:45:01Z</time>
      </trkpt>
      <trkpt lat="44.56368" lon="2.65012">
        <ele>323.301</ele>
        <time>2013-06-21T08:45:13Z</time>
      </trkpt>
      <trkpt lat="44.5637" lon="2.64994">
        <ele>323.107</ele>
        <time>2013-06-21T08:45:28Z</time>
      </trkpt>
      <trkpt lat="44.56365" lon="2.64977">
        <ele>323.221</ele>
        <time>2013-06-21T08:45:42Z</time>
      </trkpt>
      <trkpt lat="44.56355" lon="2.64964">
        <ele>323.489</ele>
        <time>2013-06-21T08:45:56Z</time>
      </trkpt>
      <trkpt lat="44.56361" lon="2.64948">
        <ele>323.396</ele>
        <time>2013-06-21T08:46:15Z</time>
      </trkpt>
      <trkpt lat="44.56349" lon="2.6495">
        <ele>323.369</ele>
        <time>2013-06-21T08:46:41Z</time>
      </trkpt>
      <trkpt lat="44.56356" lon="2.64943">
        <ele>322.555</ele>
        <time>2013-06-21T08:47:26Z</time>
      </trkpt>
      <trkpt lat="44.56346" lon="2.64944">
        <ele>322.484</ele>
        <time>2013-06-21T08:47:47Z</time>
      </trkpt>
      <trkpt lat="44.56355" lon="2.64945">
        <ele>322.893</ele>
        <time>2013-06-21T08:48:29Z</time>
      </trkpt>
      <trkpt lat="44.56353" lon="2.64955">
        <ele>323.581</ele>
        <time>2013-06-21T08:48:45Z</time>
      </trkpt>
      <trkpt lat="44.56354" lon="2.64958">
        <ele>323.593</ele>
        <time>2013-06-21T08:48:48Z</time>
      </trkpt>
      <trkpt lat="44.56358" lon="2.64985">
        <ele>324.846</ele>
        <time>2013-06-21T08:49:07Z</time>
      </trkpt>
      <trkpt lat="44.56362" lon="2.65">
        <ele>327.905</ele>
        <time>2013-06-21T08:49:20Z</time>
      </trkpt>
      <trkpt lat="44.56373" lon="2.6501">
        <ele>329.149</ele>
        <time>2013-06-21T08:49:37Z</time>
      </trkpt>
      <trkpt lat="44.56384" lon="2.6502">
        <ele>330.207</ele>
        <time>2013-06-21T08:49:54Z</time>
      </trkpt>
      <trkpt lat="44.56386" lon="2.65024">
        <ele>331.421</ele>
        <time>2013-06-21T08:49:59Z</time>
      </trkpt>
      <trkpt lat="44.56392" lon="2.6504">
        <ele>332.05</ele>
        <time>2013-06-21T08:50:16Z</time>
      </trkpt>
      <trkpt lat="44.56395" lon="2.6505">
        <ele>333.252</ele>
        <time>2013-06-21T08:50:28Z</time>
      </trkpt>
      <trkpt lat="44.56391" lon="2.6504">
        <ele>335.443</ele>
        <time>2013-06-21T08:50:45Z</time>
      </trkpt>
      <trkpt lat="44.56392" lon="2.65018">
        <ele>337.256</ele>
        <time>2013-06-21T08:51:04Z</time>
      </trkpt>
      <trkpt lat="44.56391" lon="2.6501">
        <ele>338.686</ele>
        <time>2013-06-21T08:51:19Z</time>
      </trkpt>
      <trkpt lat="44.56389" lon="2.65001">
        <ele>341.807</ele>
        <time>2013-06-21T08:51:32Z</time>
      </trkpt>
      <trkpt lat="44.5639" lon="2.64982">
        <ele>342.894</ele>
        <time>2013-06-21T08:51:50Z</time>
      </trkpt>
      <trkpt lat="44.56385" lon="2.64972">
        <ele>345.595</ele>
        <time>2013-06-21T08:52:12Z</time>
      </trkpt>
      <trkpt lat="44.56382" lon="2.64965">
        <ele>347.781</ele>
        <time>2013-06-21T08:52:29Z</time>
      </trkpt>
      <trkpt lat="44.56383" lon="2.64956">
        <ele>350.969</ele>
        <time>2013-06-21T08:52:48Z</time>
      </trkpt>
      <trkpt lat="44.56388" lon="2.64942">
        <ele>353.344</ele>
        <time>2013-06-21T08:53:06Z</time>
      </trkpt>
      <trkpt lat="44.5639" lon="2.64932">
        <ele>354.442</ele>
        <time>2013-06-21T08:53:26Z</time>
      </trkpt>
      <trkpt lat="44.56395" lon="2.64938">
        <ele>356.871</ele>
        <time>2013-06-21T08:53:43Z</time>
      </trkpt>
      <trkpt lat="44.56401" lon="2.64941">
        <ele>358.064</ele>
        <time>2013-06-21T08:53:57Z</time>
      </trkpt>
      <trkpt lat="44.56404" lon="2.64946">
        <ele>360.72</ele>
        <time>2013-06-21T08:54:13Z</time>
      </trkpt>
      <trkpt lat="44.56408" lon="2.6495">
        <ele>362.155</ele>
        <time>2013-06-21T08:54:32Z</time>
      </trkpt>
      <trkpt lat="44.56413" lon="2.64951">
        <ele>361.444</ele>
        <time>2013-06-21T08:56:24Z</time>
      </trkpt>
      <trkpt lat="44.56411" lon="2.64951">
        <ele>361.327</ele>
        <time>2013-06-21T08:57:01Z</time>
      </trkpt>
      <trkpt lat="44.56409" lon="2.64938">
        <ele>362.312</ele>
        <time>2013-06-21T08:58:10Z</time>
      </trkpt>
      <trkpt lat="44.56402" lon="2.64919">
        <ele>363.93</ele>
        <time>2013-06-21T08:58:29Z</time>
      </trkpt>
      <trkpt lat="44.564" lon="2.64901">
        <ele>365.56</ele>
        <time>2013-06-21T08:58:47Z</time>
      </trkpt>
      <trkpt lat="44.56396" lon="2.64881">
        <ele>366.819</ele>
        <time>2013-06-21T08:59:05Z</time>
      </trkpt>
      <trkpt lat="44.56395" lon="2.64855">
        <ele>369.565</ele>
        <time>2013-06-21T08:59:26Z</time>
      </trkpt>
      <trkpt lat="44.564" lon="2.6483">
        <ele>371.521</ele>
        <time>2013-06-21T08:59:48Z</time>
      </trkpt>
      <trkpt lat="44.564" lon="2.64803">
        <ele>373.645</ele>
        <time>2013-06-21T09:00:10Z</time>
      </trkpt>
      <trkpt lat="44.56399" lon="2.64781">
        <ele>376.895</ele>
        <time>2013-06-21T09:00:31Z</time>
      </trkpt>
      <trkpt lat="44.56397" lon="2.64759">
        <ele>377.938</ele>
        <time>2013-06-21T09:00:52Z</time>
      </trkpt>
      <trkpt lat="44.56394" lon="2.64737">
        <ele>380.99</ele>
        <time>2013-06-21T09:01:12Z</time>
      </trkpt>
      <trkpt lat="44.5639" lon="2.64711">
        <ele>383.703</ele>
        <time>2013-06-21T09:01:34Z</time>
      </trkpt>
      <trkpt lat="44.56389" lon="2.64702">
        <ele>384.415</ele>
        <time>2013-06-21T09:01:42Z</time>
      </trkpt>
      <trkpt lat="44.56389" lon="2.64676">
        <ele>385.628</ele>
        <time>2013-06-21T09:02:03Z</time>
      </trkpt>
      <trkpt lat="44.5639" lon="2.64645">
        <ele>387.84</ele>
        <time>2013-06-21T09:02:28Z</time>
      </trkpt>
      <trkpt lat="44.56388" lon="2.64617">
        <ele>389.881</ele>
        <time>2013-06-21T09:02:52Z</time>
      </trkpt>
      <trkpt lat="44.56382" lon="2.64593">
        <ele>392.739</ele>
        <time>2013-06-21T09:03:13Z</time>
      </trkpt>
      <trkpt lat="44.56376" lon="2.64569">
        <ele>395.395</ele>
        <time>2013-06-21T09:03:35Z</time>
      </trkpt>
      <trkpt lat="44.5637" lon="2.64548">
        <ele>396.923</ele>
        <time>2013-06-21T09:03:54Z</time>
      </trkpt>
      <trkpt lat="44.56368" lon="2.64533">
        <ele>397.242</ele>
        <time>2013-06-21T09:04:19Z</time>
      </trkpt>
      <trkpt lat="44.56369" lon="2.64534">
        <ele>397.543</ele>
        <time>2013-06-21T09:04:59Z</time>
      </trkpt>
      <trkpt lat="44.56369" lon="2.64536">
        <ele>397.356</ele>
        <time>2013-06-21T09:05:27Z</time>
      </trkpt>
      <trkpt lat="44.56368" lon="2.64534">
        <ele>398.177</ele>
        <time>2013-06-21T09:05:43Z</time>
      </trkpt>
      <trkpt lat="44.5637" lon="2.64535">
        <ele>398.241</ele>
        <time>2013-06-21T09:06:13Z</time>
      </trkpt>
      <trkpt lat="44.5637" lon="2.64535">
        <ele>398.406</ele>
        <time>2013-06-21T09:06:55Z</time>
      </trkpt>
      <trkpt lat="44.56362" lon="2.64523">
        <ele>398.109</ele>
        <time>2013-06-21T09:08:01Z</time>
      </trkpt>
      <trkpt lat="44.56368" lon="2.64522">
        <ele>400.429</ele>
        <time>2013-06-21T09:08:18Z</time>
      </trkpt>
      <trkpt lat="44.56379" lon="2.64535">
        <ele>402.538</ele>
        <time>2013-06-21T09:08:39Z</time>
      </trkpt>
      <trkpt lat="44.5639" lon="2.64547">
        <ele>404.227</ele>
        <time>2013-06-21T09:08:58Z</time>
      </trkpt>
      <trkpt lat="44.56405" lon="2.64565">
        <ele>405.625</ele>
        <time>2013-06-21T09:09:21Z</time>
      </trkpt>
      <trkpt lat="44.56406" lon="2.64567">
        <ele>406.519</ele>
        <time>2013-06-21T09:09:38Z</time>
      </trkpt>
      <trkpt lat="44.56402" lon="2.64556">
        <ele>405.638</ele>
        <time>2013-06-21T09:09:53Z</time>
      </trkpt>
      <trkpt lat="44.56399" lon="2.64548">
        <ele>406.472</ele>
        <time>2013-06-21T09:10:07Z</time>
      </trkpt>
      <trkpt lat="44.56399" lon="2.64547">
        <ele>407.57</ele>
        <time>2013-06-21T09:10:09Z</time>
      </trkpt>
      <trkpt lat="44.56395" lon="2.64529">
        <ele>409.657</ele>
        <time>2013-06-21T09:10:28Z</time>
      </trkpt>
      <trkpt lat="44.56383" lon="2.64511">
        <ele>411.417</ele>
        <time>2013-06-21T09:10:51Z</time>
      </trkpt>
      <trkpt lat="44.56385" lon="2.64509">
        <ele>411.747</ele>
        <time>2013-06-21T09:11:05Z</time>
      </trkpt>
      <trkpt lat="44.56395" lon="2.6451">
        <ele>414.797</ele>
        <time>2013-06-21T09:11:21Z</time>
      </trkpt>
      <trkpt lat="44.564" lon="2.64501">
        <ele>415.988</ele>
        <time>2013-06-21T09:11:38Z</time>
      </trkpt>
      <trkpt lat="44.56404" lon="2.64491">
        <ele>417.707</ele>
        <time>2013-06-21T09:11:56Z</time>
      </trkpt>
      <trkpt lat="44.56405" lon="2.64471">
        <ele>420.572</ele>
        <time>2013-06-21T09:12:15Z</time>
      </trkpt>
      <trkpt lat="44.56403" lon="2.64456">
        <ele>421.459</ele>
        <time>2013-06-21T09:12:30Z</time>
      </trkpt>
      <trkpt lat="44.56404" lon="2.64435">
        <ele>422.537</ele>
        <time>2013-06-21T09:12:48Z</time>
      </trkpt>
      <trkpt lat="44.56401" lon="2.64413">
        <ele>425.621</ele>
        <time>2013-06-21T09:13:09Z</time>
      </trkpt>
      <trkpt lat="44.56405" lon="2.64387">
        <ele>428.286</ele>
        <time>2013-06-21T09:13:34Z</time>
      </trkpt>
      <trkpt lat="44.5641" lon="2.64373">
        <ele>429.524</ele>
        <time>2013-06-21T09:13:52Z</time>
      </trkpt>
      <trkpt lat="44.56414" lon="2.64369">
        <ele>431.739</ele>
        <time>2013-06-21T09:14:06Z</time>
      </trkpt>
      <trkpt lat="44.56414" lon="2.64373">
        <ele>432.044</ele>
        <time>2013-06-21T09:14:15Z</time>
      </trkpt>
      <trkpt lat="44.5642" lon="2.64403">
        <ele>433.195</ele>
        <time>2013-06-21T09:14:31Z</time>
      </trkpt>
      <trkpt lat="44.56433" lon="2.64396">
        <ele>434.052</ele>
        <time>2013-06-21T09:14:50Z</time>
      </trkpt>
      <trkpt lat="44.56447" lon="2.64406">
        <ele>435.649</ele>
        <time>2013-06-21T09:15:10Z</time>
      </trkpt>
      <trkpt lat="44.56459" lon="2.64413">
        <ele>436.426</ele>
        <time>2013-06-21T09:15:28Z</time>
      </trkpt>
      <trkpt lat="44.5647" lon="2.64425">
        <ele>438.209</ele>
        <time>2013-06-21T09:15:50Z</time>
      </trkpt>
      <trkpt lat="44.56475" lon="2.64434">
        <ele>441.492</ele>
        <time>2013-06-21T09:16:07Z</time>
      </trkpt>
      <trkpt lat="44.56481" lon="2.64469">
        <ele>442.292</ele>
        <time>2013-06-21T09:16:27Z</time>
      </trkpt>
      <trkpt lat="44.56505" lon="2.64463">
        <ele>442.803</ele>
        <time>2013-06-21T09:16:51Z</time>
      </trkpt>
      <trkpt lat="44.56511" lon="2.64466">
        <ele>442.314</ele>
        <time>2013-06-21T09:17:28Z</time>
      </trkpt>
      <trkpt lat="44.56504" lon="2.64481">
        <ele>442.29</ele>
        <time>2013-06-21T09:17:57Z</time>
      </trkpt>
      <trkpt lat="44.56492" lon="2.64462">
        <ele>444.015</ele>
        <time>2013-06-21T09:18:53Z</time>
      </trkpt>
      <trkpt lat="44.56484" lon="2.64434">
        <ele>445.006</ele>
        <time>2013-06-21T09:19:54Z</time>
      </trkpt>
      <trkpt lat="44.56487" lon="2.64441">
        <ele>446.775</ele>
        <time>2013-06-21T09:20:27Z</time>
      </trkpt>
      <trkpt lat="44.5649" lon="2.64452">
        <ele>449.057</ele>
        <time>2013-06-21T09:20:47Z</time>
      </trkpt>
      <trkpt lat="44.56494" lon="2.64466">
        <ele>451.614</ele>
        <time>2013-06-21T09:21:04Z</time>
      </trkpt>
      <trkpt lat="44.56497" lon="2.6446">
        <ele>453.094</ele>
        <time>2013-06-21T09:21:20Z</time>
      </trkpt>
      <trkpt lat="44.56497" lon="2.64446">
        <ele>454.426</ele>
        <time>2013-06-21T09:21:35Z</time>
      </trkpt>
      <trkpt lat="44.56497" lon="2.64433">
        <ele>455.89</ele>
        <time>2013-06-21T09:21:52Z</time>
      </trkpt>
      <trkpt lat="44.56495" lon="2.64423">
        <ele>457.381</ele>
        <time>2013-06-21T09:22:06Z</time>
      </trkpt>
      <trkpt lat="44.56491" lon="2.64408">
        <ele>458.284</ele>
        <time>2013-06-21T09:22:22Z</time>
      </trkpt>
      <trkpt lat="44.56496" lon="2.64398">
        <ele>460.611</ele>
        <time>2013-06-21T09:22:43Z</time>
      </trkpt>
      <trkpt lat="44.56498" lon="2.64408">
        <ele>461.676</ele>
        <time>2013-06-21T09:22:58Z</time>
      </trkpt>
      <trkpt lat="44.56502" lon="2.64419">
        <ele>464.715</ele>
        <time>2013-06-21T09:23:16Z</time>
      </trkpt>
      <trkpt lat="44.56502" lon="2.64428">
        <ele>464.609</ele>
        <time>2013-06-21T09:23:31Z</time>
      </trkpt>
      <trkpt lat="44.56501" lon="2.6443">
        <ele>464.256</ele>
        <time>2013-06-21T09:23:57Z</time>
      </trkpt>
      <trkpt lat="44.56507" lon="2.64435">
        <ele>465.675</ele>
        <time>2013-06-21T09:24:59Z</time>
      </trkpt>
      <trkpt lat="44.56515" lon="2.64451">
        <ele>467.56</ele>
        <time>2013-06-21T09:25:18Z</time>
      </trkpt>
      <trkpt lat="44.56521" lon="2.64467">
        <ele>468.841</ele>
        <time>2013-06-21T09:25:34Z</time>
      </trkpt>
      <trkpt lat="44.56525" lon="2.64487">
        <ele>470.141</ele>
        <time>2013-06-21T09:25:52Z</time>
      </trkpt>
      <trkpt lat="44.56528" lon="2.6451">
        <ele>471.158</ele>
        <time>2013-06-21T09:26:11Z</time>
      </trkpt>
      <trkpt lat="44.56535" lon="2.64535">
        <ele>473.062</ele>
        <time>2013-06-21T09:26:35Z</time>
      </trkpt>
      <trkpt lat="44.56538" lon="2.6453">
        <ele>473.802</ele>
        <time>2013-06-21T09:26:49Z</time>
      </trkpt>
      <trkpt lat="44.56534" lon="2.64502">
        <ele>474.876</ele>
        <time>2013-06-21T09:27:11Z</time>
      </trkpt>
      <trkpt lat="44.56531" lon="2.6447">
        <ele>476.107</ele>
        <time>2013-06-21T09:27:36Z</time>
      </trkpt>
      <trkpt lat="44.56527" lon="2.64442">
        <ele>478.281</ele>
        <time>2013-06-21T09:27:58Z</time>
      </trkpt>
      <trkpt lat="44.56523" lon="2.64417">
        <ele>479.179</ele>
        <time>2013-06-21T09:28:20Z</time>
      </trkpt>
      <trkpt lat="44.56519" lon="2.64394">
        <ele>480.222</ele>
        <time>2013-06-21T09:28:38Z</time>
      </trkpt>
      <trkpt lat="44.56512" lon="2.64368">
        <ele>482.095</ele>
        <time>2013-06-21T09:28:59Z</time>
      </trkpt>
      <trkpt lat="44.56508" lon="2.64352">
        <ele>483.674</ele>
        <time>2013-06-21T09:29:16Z</time>
      </trkpt>
      <trkpt lat="44.56502" lon="2.64339">
        <ele>485.511</ele>
        <time>2013-06-21T09:29:31Z</time>
      </trkpt>
      <trkpt lat="44.5649" lon="2.64323">
        <ele>488.225</ele>
        <time>2013-06-21T09:29:52Z</time>
      </trkpt>
      <trkpt lat="44.56477" lon="2.6431">
        <ele>490.555</ele>
        <time>2013-06-21T09:30:12Z</time>
      </trkpt>
      <trkpt lat="44.56467" lon="2.64296">
        <ele>492.003</ele>
        <time>2013-06-21T09:30:30Z</time>
      </trkpt>
      <trkpt lat="44.56455" lon="2.64281">
        <ele>493.933</ele>
        <time>2013-06-21T09:30:48Z</time>
      </trkpt>
      <trkpt lat="44.56444" lon="2.64263">
        <ele>495.912</ele>
        <time>2013-06-21T09:31:08Z</time>
      </trkpt>
      <trkpt lat="44.56434" lon="2.64244">
        <ele>498.008</ele>
        <time>2013-06-21T09:31:27Z</time>
      </trkpt>
      <trkpt lat="44.5643" lon="2.64227">
        <ele>500.329</ele>
        <time>2013-06-21T09:31:45Z</time>
      </trkpt>
      <trkpt lat="44.56424" lon="2.64202">
        <ele>501.841</ele>
        <time>2013-06-21T09:32:08Z</time>
      </trkpt>
      <trkpt lat="44.56421" lon="2.64174">
        <ele>504.648</ele>
        <time>2013-06-21T09:32:30Z</time>
      </trkpt>
      <trkpt lat="44.56424" lon="2.64146">
        <ele>506.446</ele>
        <time>2013-06-21T09:32:54Z</time>
      </trkpt>
      <trkpt lat="44.56428" lon="2.64118">
        <ele>508.536</ele>
        <time>2013-06-21T09:33:18Z</time>
      </trkpt>
      <trkpt lat="44.56435" lon="2.64091">
        <ele>511.04</ele>
        <time>2013-06-21T09:33:43Z</time>
      </trkpt>
      <trkpt lat="44.56443" lon="2.64069">
        <ele>512.937</ele>
        <time>2013-06-21T09:34:04Z</time>
      </trkpt>
      <trkpt lat="44.56453" lon="2.64049">
        <ele>515.967</ele>
        <time>2013-06-21T09:34:26Z</time>
      </trkpt>
      <trkpt lat="44.56466" lon="2.64027">
        <ele>518.766</ele>
        <time>2013-06-21T09:34:49Z</time>
      </trkpt>
      <trkpt lat="44.56479" lon="2.64004">
        <ele>520.531</ele>
        <time>2013-06-21T09:35:14Z</time>
      </trkpt>
      <trkpt lat="44.56486" lon="2.6399">
        <ele>521.59</ele>
        <time>2013-06-21T09:35:32Z</time>
      </trkpt>
      <trkpt lat="44.56496" lon="2.63975">
        <ele>522.925</ele>
        <time>2013-06-21T09:35:53Z</time>
      </trkpt>
      <trkpt lat="44.56502" lon="2.6397">
        <ele>523.744</ele>
        <time>2013-06-21T09:36:14Z</time>
      </trkpt>
      <trkpt lat="44.56503" lon="2.6397">
        <ele>522.911</ele>
        <time>2013-06-21T09:36:34Z</time>
      </trkpt>
      <trkpt lat="44.56504" lon="2.63969">
        <ele>522.698</ele>
        <time>2013-06-21T09:36:43Z</time>
      </trkpt>
      <trkpt lat="44.56504" lon="2.63972">
        <ele>521.663</ele>
        <time>2013-06-21T09:38:28Z</time>
      </trkpt>
      <trkpt lat="44.56503" lon="2.63969">
        <ele>523.028</ele>
        <time>2013-06-21T09:41:32Z</time>
      </trkpt>
      <trkpt lat="44.56503" lon="2.6397">
        <ele>526.221</ele>
        <time>2013-06-21T09:42:35Z</time>
      </trkpt>
      <trkpt lat="44.56503" lon="2.6397">
        <ele>523.044</ele>
        <time>2013-06-21T09:42:37Z</time>
      </trkpt>
      <trkpt lat="44.56503" lon="2.6397">
        <ele>518.52</ele>
        <time>2013-06-21T09:42:45Z</time>
      </trkpt>
      <trkpt lat="44.56503" lon="2.6397">
        <ele>528.853</ele>
        <time>2013-06-21T09:42:46Z</time>
      </trkpt>
      <trkpt lat="44.56503" lon="2.6397">
        <ele>522.004</ele>
        <time>2013-06-21T09:42:47Z</time>
      </trkpt>
      <trkpt lat="44.56502" lon="2.63971">
        <ele>524.349</ele>
        <time>2013-06-21T09:43:10Z</time>
      </trkpt>
      <trkpt lat="44.56502" lon="2.63971">
        <ele>520.259</ele>
        <time>2013-06-21T09:43:12Z</time>
      </trkpt>
      <trkpt lat="44.56502" lon="2.63971">
        <ele>524.817</ele>
        <time>2013-06-21T09:43:14Z</time>
      </trkpt>
      <trkpt lat="44.56502" lon="2.63971">
        <ele>524.209</ele>
        <time>2013-06-21T09:43:15Z</time>
      </trkpt>
      <trkpt lat="44.56502" lon="2.63971">
        <ele>522.713</ele>
        <time>2013-06-21T09:43:17Z</time>
      </trkpt>
      <trkpt lat="44.56503" lon="2.6397">
        <ele>523.292</ele>
        <time>2013-06-21T09:43:48Z</time>
      </trkpt>
      <trkpt lat="44.56502" lon="2.6397">
        <ele>523.566</ele>
        <time>2013-06-21T09:44:01Z</time>
      </trkpt>
      <trkpt lat="44.56503" lon="2.6397">
        <ele>524.178</ele>
        <time>2013-06-21T09:44:31Z</time>
      </trkpt>
      <trkpt lat="44.56503" lon="2.63963">
        <ele>524.587</ele>
        <time>2013-06-21T09:44:48Z</time>
      </trkpt>
      <trkpt lat="44.56503" lon="2.63969">
        <ele>524.505</ele>
        <time>2013-06-21T09:45:01Z</time>
      </trkpt>
      <trkpt lat="44.56507" lon="2.63954">
        <ele>524.844</ele>
        <time>2013-06-21T09:45:18Z</time>
      </trkpt>
      <trkpt lat="44.56515" lon="2.63928">
        <ele>524.986</ele>
        <time>2013-06-21T09:45:38Z</time>
      </trkpt>
      <trkpt lat="44.56517" lon="2.63884">
        <ele>526.617</ele>
        <time>2013-06-21T09:46:10Z</time>
      </trkpt>
      <trkpt lat="44.56517" lon="2.63845">
        <ele>529.031</ele>
        <time>2013-06-21T09:46:39Z</time>
      </trkpt>
      <trkpt lat="44.56517" lon="2.63816">
        <ele>532.138</ele>
        <time>2013-06-21T09:47:00Z</time>
      </trkpt>
      <trkpt lat="44.56518" lon="2.63782">
        <ele>533.633</ele>
        <time>2013-06-21T09:47:27Z</time>
      </trkpt>
      <trkpt lat="44.5652" lon="2.63755">
        <ele>535.562</ele>
        <time>2013-06-21T09:47:50Z</time>
      </trkpt>
      <trkpt lat="44.56522" lon="2.63728">
        <ele>538.131</ele>
        <time>2013-06-21T09:48:13Z</time>
      </trkpt>
      <trkpt lat="44.56522" lon="2.63702">
        <ele>540.958</ele>
        <time>2013-06-21T09:48:35Z</time>
      </trkpt>
      <trkpt lat="44.56521" lon="2.63675">
        <ele>543.169</ele>
        <time>2013-06-21T09:48:57Z</time>
      </trkpt>
      <trkpt lat="44.56521" lon="2.63645">
        <ele>545.637</ele>
        <time>2013-06-21T09:49:22Z</time>
      </trkpt>
      <trkpt lat="44.56522" lon="2.63638">
        <ele>546.049</ele>
        <time>2013-06-21T09:49:45Z</time>
      </trkpt>
      <trkpt lat="44.56524" lon="2.63637">
        <ele>546.233</ele>
        <time>2013-06-21T09:50:33Z</time>
      </trkpt>
      <trkpt lat="44.56528" lon="2.6364">
        <ele>546.329</ele>
        <time>2013-06-21T09:50:50Z</time>
      </trkpt>
      <trkpt lat="44.56527" lon="2.63641">
        <ele>546.322</ele>
        <time>2013-06-21T09:51:06Z</time>
      </trkpt>
      <trkpt lat="44.56526" lon="2.6364">
        <ele>546.445</ele>
        <time>2013-06-21T09:51:35Z</time>
      </trkpt>
      <trkpt lat="44.56525" lon="2.63639">
        <ele>546.828</ele>
        <time>2013-06-21T09:52:11Z</time>
      </trkpt>
      <trkpt lat="44.56524" lon="2.63639">
        <ele>546.351</ele>
        <time>2013-06-21T09:52:46Z</time>
      </trkpt>
      <trkpt lat="44.56524" lon="2.63629">
        <ele>547.551</ele>
        <time>2013-06-21T09:53:41Z</time>
      </trkpt>
      <trkpt lat="44.56522" lon="2.63601">
        <ele>549.932</ele>
        <time>2013-06-21T09:54:05Z</time>
      </trkpt>
      <trkpt lat="44.56517" lon="2.63582">
        <ele>553.01</ele>
        <time>2013-06-21T09:54:22Z</time>
      </trkpt>
      <trkpt lat="44.56508" lon="2.63555">
        <ele>554.468</ele>
        <time>2013-06-21T09:54:44Z</time>
      </trkpt>
      <trkpt lat="44.56499" lon="2.63531">
        <ele>556.813</ele>
        <time>2013-06-21T09:55:05Z</time>
      </trkpt>
      <trkpt lat="44.56493" lon="2.63512">
        <ele>560.022</ele>
        <time>2013-06-21T09:55:21Z</time>
      </trkpt>
      <trkpt lat="44.56484" lon="2.63485">
        <ele>560.597</ele>
        <time>2013-06-21T09:55:43Z</time>
      </trkpt>
      <trkpt lat="44.56472" lon="2.6345">
        <ele>562.83</ele>
        <time>2013-06-21T09:56:11Z</time>
      </trkpt>
      <trkpt lat="44.56459" lon="2.63419">
        <ele>564.115</ele>
        <time>2013-06-21T09:56:37Z</time>
      </trkpt>
      <trkpt lat="44.56449" lon="2.6339">
        <ele>565.879</ele>
        <time>2013-06-21T09:57:01Z</time>
      </trkpt>
      <trkpt lat="44.56443" lon="2.63367">
        <ele>569.017</ele>
        <time>2013-06-21T09:57:20Z</time>
      </trkpt>
      <trkpt lat="44.56438" lon="2.63341">
        <ele>572.501</ele>
        <time>2013-06-21T09:57:42Z</time>
      </trkpt>
      <trkpt lat="44.56434" lon="2.63315">
        <ele>573.74</ele>
        <time>2013-06-21T09:58:04Z</time>
      </trkpt>
      <trkpt lat="44.56434" lon="2.63311">
        <ele>574.116</ele>
        <time>2013-06-21T09:58:22Z</time>
      </trkpt>
      <trkpt lat="44.56433" lon="2.63305">
        <ele>574.982</ele>
        <time>2013-06-21T09:58:51Z</time>
      </trkpt>
      <trkpt lat="44.56431" lon="2.63296">
        <ele>576.958</ele>
        <time>2013-06-21T09:59:07Z</time>
      </trkpt>
      <trkpt lat="44.56431" lon="2.63296">
        <ele>576.498</ele>
        <time>2013-06-21T09:59:28Z</time>
      </trkpt>
      <trkpt lat="44.5643" lon="2.63298">
        <ele>576.995</ele>
        <time>2013-06-21T10:01:00Z</time>
      </trkpt>
      <trkpt lat="44.56431" lon="2.6329">
        <ele>577.89</ele>
        <time>2013-06-21T10:01:26Z</time>
      </trkpt>
      <trkpt lat="44.56431" lon="2.63262">
        <ele>579.504</ele>
        <time>2013-06-21T10:01:49Z</time>
      </trkpt>
      <trkpt lat="44.56436" lon="2.63234">
        <ele>581.702</ele>
        <time>2013-06-21T10:02:13Z</time>
      </trkpt>
      <trkpt lat="44.56448" lon="2.63224">
        <ele>583.486</ele>
        <time>2013-06-21T10:02:29Z</time>
      </trkpt>
      <trkpt lat="44.56461" lon="2.63237">
        <ele>584.912</ele>
        <time>2013-06-21T10:02:49Z</time>
      </trkpt>
      <trkpt lat="44.5647" lon="2.63259">
        <ele>587.951</ele>
        <time>2013-06-21T10:03:11Z</time>
      </trkpt>
      <trkpt lat="44.56484" lon="2.63246">
        <ele>590.269</ele>
        <time>2013-06-21T10:03:31Z</time>
      </trkpt>
      <trkpt lat="44.56498" lon="2.63237">
        <ele>593.433</ele>
        <time>2013-06-21T10:03:47Z</time>
      </trkpt>
      <trkpt lat="44.56507" lon="2.63232">
        <ele>593.71</ele>
        <time>2013-06-21T10:04:01Z</time>
      </trkpt>
      <trkpt lat="44.56531" lon="2.63221">
        <ele>595.163</ele>
        <time>2013-06-21T10:04:26Z</time>
      </trkpt>
      <trkpt lat="44.56557" lon="2.63206">
        <ele>597.056</ele>
        <time>2013-06-21T10:04:53Z</time>
      </trkpt>
      <trkpt lat="44.56582" lon="2.6319">
        <ele>598.499</ele>
        <time>2013-06-21T10:05:21Z</time>
      </trkpt>
      <trkpt lat="44.56607" lon="2.63172">
        <ele>599.632</ele>
        <time>2013-06-21T10:05:48Z</time>
      </trkpt>
      <trkpt lat="44.56626" lon="2.63144">
        <ele>601.304</ele>
        <time>2013-06-21T10:06:15Z</time>
      </trkpt>
      <trkpt lat="44.56643" lon="2.63114">
        <ele>602.209</ele>
        <time>2013-06-21T10:06:41Z</time>
      </trkpt>
      <trkpt lat="44.5666" lon="2.63086">
        <ele>603.4</ele>
        <time>2013-06-21T10:07:07Z</time>
      </trkpt>
      <trkpt lat="44.5667" lon="2.63077">
        <ele>604.153</ele>
        <time>2013-06-21T10:07:26Z</time>
      </trkpt>
      <trkpt lat="44.56668" lon="2.63077">
        <ele>603.015</ele>
        <time>2013-06-21T10:08:18Z</time>
      </trkpt>
      <trkpt lat="44.56669" lon="2.63076">
        <ele>604.526</ele>
        <time>2013-06-21T10:14:44Z</time>
      </trkpt>
      <trkpt lat="44.56671" lon="2.63073">
        <ele>604.47</ele>
        <time>2013-06-21T10:15:05Z</time>
      </trkpt>
      <trkpt lat="44.56679" lon="2.6306">
        <ele>604.472</ele>
        <time>2013-06-21T10:15:22Z</time>
      </trkpt>
      <trkpt lat="44.56697" lon="2.6303">
        <ele>604.898</ele>
        <time>2013-06-21T10:15:53Z</time>
      </trkpt>
      <trkpt lat="44.56698" lon="2.6303">
        <ele>605.612</ele>
        <time>2013-06-21T10:16:10Z</time>
      </trkpt>
      <trkpt lat="44.56706" lon="2.6301">
        <ele>605.66</ele>
        <time>2013-06-21T10:16:28Z</time>
      </trkpt>
      <trkpt lat="44.56717" lon="2.62981">
        <ele>606.385</ele>
        <time>2013-06-21T10:16:50Z</time>
      </trkpt>
      <trkpt lat="44.56729" lon="2.62946">
        <ele>607.525</ele>
        <time>2013-06-21T10:17:15Z</time>
      </trkpt>
      <trkpt lat="44.56737" lon="2.62922">
        <ele>608.334</ele>
        <time>2013-06-21T10:17:34Z</time>
      </trkpt>
      <trkpt lat="44.5674" lon="2.62897">
        <ele>609.092</ele>
        <time>2013-06-21T10:17:55Z</time>
      </trkpt>
      <trkpt lat="44.56741" lon="2.62873">
        <ele>610.983</ele>
        <time>2013-06-21T10:18:15Z</time>
      </trkpt>
      <trkpt lat="44.56738" lon="2.6285">
        <ele>614.025</ele>
        <time>2013-06-21T10:18:35Z</time>
      </trkpt>
      <trkpt lat="44.5674" lon="2.62826">
        <ele>615.525</ele>
        <time>2013-06-21T10:18:54Z</time>
      </trkpt>
      <trkpt lat="44.56741" lon="2.62803">
        <ele>618.084</ele>
        <time>2013-06-21T10:19:13Z</time>
      </trkpt>
      <trkpt lat="44.56749" lon="2.6279">
        <ele>619.219</ele>
        <time>2013-06-21T10:19:27Z</time>
      </trkpt>
      <trkpt lat="44.56765" lon="2.62785">
        <ele>620.578</ele>
        <time>2013-06-21T10:19:47Z</time>
      </trkpt>
      <trkpt lat="44.56779" lon="2.62787">
        <ele>623.621</ele>
        <time>2013-06-21T10:20:02Z</time>
      </trkpt>
      <trkpt lat="44.56797" lon="2.62773">
        <ele>624.884</ele>
        <time>2013-06-21T10:20:25Z</time>
      </trkpt>
      <trkpt lat="44.56805" lon="2.62764">
        <ele>626.477</ele>
        <time>2013-06-21T10:20:36Z</time>
      </trkpt>
      <trkpt lat="44.56829" lon="2.62745">
        <ele>628.74</ele>
        <time>2013-06-21T10:21:04Z</time>
      </trkpt>
      <trkpt lat="44.56836" lon="2.6274">
        <ele>628.962</ele>
        <time>2013-06-21T10:21:28Z</time>
      </trkpt>
      <trkpt lat="44.56836" lon="2.62741">
        <ele>629.126</ele>
        <time>2013-06-21T10:22:01Z</time>
      </trkpt>
      <trkpt lat="44.56839" lon="2.6274">
        <ele>629.39</ele>
        <time>2013-06-21T10:22:28Z</time>
      </trkpt>
      <trkpt lat="44.56842" lon="2.62738">
        <ele>630.317</ele>
        <time>2013-06-21T10:22:49Z</time>
      </trkpt>
      <trkpt lat="44.56843" lon="2.62736">
        <ele>629.891</ele>
        <time>2013-06-21T10:23:17Z</time>
      </trkpt>
      <trkpt lat="44.56859" lon="2.62729">
        <ele>631.319</ele>
        <time>2013-06-21T10:23:36Z</time>
      </trkpt>
      <trkpt lat="44.5687" lon="2.62727">
        <ele>631.324</ele>
        <time>2013-06-21T10:23:48Z</time>
      </trkpt>
      <trkpt lat="44.5688" lon="2.62726">
        <ele>631.813</ele>
        <time>2013-06-21T10:24:06Z</time>
      </trkpt>
      <trkpt lat="44.56908" lon="2.62721">
        <ele>632.275</ele>
        <time>2013-06-21T10:24:35Z</time>
      </trkpt>
      <trkpt lat="44.56942" lon="2.6271">
        <ele>633.564</ele>
        <time>2013-06-21T10:25:08Z</time>
      </trkpt>
      <trkpt lat="44.56971" lon="2.62692">
        <ele>636.728</ele>
        <time>2013-06-21T10:25:38Z</time>
      </trkpt>
      <trkpt lat="44.56993" lon="2.62669">
        <ele>638.29</ele>
        <time>2013-06-21T10:26:06Z</time>
      </trkpt>
      <trkpt lat="44.57003" lon="2.62657">
        <ele>639.529</ele>
        <time>2013-06-21T10:26:29Z</time>
      </trkpt>
      <trkpt lat="44.57003" lon="2.62657">
        <ele>639.994</ele>
        <time>2013-06-21T10:26:51Z</time>
      </trkpt>
      <trkpt lat="44.57004" lon="2.62652">
        <ele>639.987</ele>
        <time>2013-06-21T10:27:11Z</time>
      </trkpt>
      <trkpt lat="44.57005" lon="2.62651">
        <ele>640.281</ele>
        <time>2013-06-21T10:27:24Z</time>
      </trkpt>
      <trkpt lat="44.57004" lon="2.62651">
        <ele>640.237</ele>
        <time>2013-06-21T10:28:08Z</time>
      </trkpt>
      <trkpt lat="44.57006" lon="2.6265">
        <ele>639.755</ele>
        <time>2013-06-21T10:28:26Z</time>
      </trkpt>
      <trkpt lat="44.57008" lon="2.62651">
        <ele>639.658</ele>
        <time>2013-06-21T10:29:13Z</time>
      </trkpt>
      <trkpt lat="44.57015" lon="2.62642">
        <ele>641.319</ele>
        <time>2013-06-21T10:29:30Z</time>
      </trkpt>
      <trkpt lat="44.57031" lon="2.62626">
        <ele>644.433</ele>
        <time>2013-06-21T10:29:52Z</time>
      </trkpt>
      <trkpt lat="44.57042" lon="2.62616">
        <ele>645.232</ele>
        <time>2013-06-21T10:30:09Z</time>
      </trkpt>
      <trkpt lat="44.57046" lon="2.62613">
        <ele>645.658</ele>
        <time>2013-06-21T10:30:14Z</time>
      </trkpt>
      <trkpt lat="44.57068" lon="2.62597">
        <ele>648.81</ele>
        <time>2013-06-21T10:30:39Z</time>
      </trkpt>
      <trkpt lat="44.5709" lon="2.62584">
        <ele>650.232</ele>
        <time>2013-06-21T10:31:04Z</time>
      </trkpt>
      <trkpt lat="44.57112" lon="2.62574">
        <ele>652.44</ele>
        <time>2013-06-21T10:31:27Z</time>
      </trkpt>
      <trkpt lat="44.57139" lon="2.62561">
        <ele>653.914</ele>
        <time>2013-06-21T10:31:54Z</time>
      </trkpt>
      <trkpt lat="44.57169" lon="2.62548">
        <ele>654.811</ele>
        <time>2013-06-21T10:32:23Z</time>
      </trkpt>
      <trkpt lat="44.57196" lon="2.62535">
        <ele>655.497</ele>
        <time>2013-06-21T10:32:49Z</time>
      </trkpt>
      <trkpt lat="44.57223" lon="2.62524">
        <ele>656.412</ele>
        <time>2013-06-21T10:33:16Z</time>
      </trkpt>
      <trkpt lat="44.57254" lon="2.6251">
        <ele>658.115</ele>
        <time>2013-06-21T10:33:47Z</time>
      </trkpt>
      <trkpt lat="44.57283" lon="2.62496">
        <ele>658.188</ele>
        <time>2013-06-21T10:34:16Z</time>
      </trkpt>
      <trkpt lat="44.5731" lon="2.62473">
        <ele>660.417</ele>
        <time>2013-06-21T10:34:46Z</time>
      </trkpt>
      <trkpt lat="44.57328" lon="2.62429">
        <ele>662.154</ele>
        <time>2013-06-21T10:35:20Z</time>
      </trkpt>
      <trkpt lat="44.57345" lon="2.62394">
        <ele>663.204</ele>
        <time>2013-06-21T10:35:49Z</time>
      </trkpt>
      <trkpt lat="44.57366" lon="2.62371">
        <ele>662.1</ele>
        <time>2013-06-21T10:36:17Z</time>
      </trkpt>
      <trkpt lat="44.57389" lon="2.62356">
        <ele>661.367</ele>
        <time>2013-06-21T10:36:40Z</time>
      </trkpt>
      <trkpt lat="44.57414" lon="2.6234">
        <ele>660.903</ele>
        <time>2013-06-21T10:37:04Z</time>
      </trkpt>
      <trkpt lat="44.57423" lon="2.62338">
        <ele>660.86</ele>
        <time>2013-06-21T10:37:25Z</time>
      </trkpt>
      <trkpt lat="44.57424" lon="2.62338">
        <ele>660.639</ele>
        <time>2013-06-21T10:38:25Z</time>
      </trkpt>
      <trkpt lat="44.57423" lon="2.62337">
        <ele>660.568</ele>
        <time>2013-06-21T10:38:38Z</time>
      </trkpt>
      <trkpt lat="44.57423" lon="2.62338">
        <ele>660.841</ele>
        <time>2013-06-21T10:39:08Z</time>
      </trkpt>
      <trkpt lat="44.57424" lon="2.62337">
        <ele>661.54</ele>
        <time>2013-06-21T10:39:30Z</time>
      </trkpt>
      <trkpt lat="44.57429" lon="2.62327">
        <ele>661.688</ele>
        <time>2013-06-21T10:39:52Z</time>
      </trkpt>
      <trkpt lat="44.57432" lon="2.62325">
        <ele>661.855</ele>
        <time>2013-06-21T10:40:27Z</time>
      </trkpt>
      <trkpt lat="44.57442" lon="2.62315">
        <ele>661.974</ele>
        <time>2013-06-21T10:41:00Z</time>
      </trkpt>
      <trkpt lat="44.57464" lon="2.62293">
        <ele>662.822</ele>
        <time>2013-06-21T10:41:25Z</time>
      </trkpt>
      <trkpt lat="44.57484" lon="2.62271">
        <ele>663.697</ele>
        <time>2013-06-21T10:41:49Z</time>
      </trkpt>
      <trkpt lat="44.57506" lon="2.62239">
        <ele>665.872</ele>
        <time>2013-06-21T10:42:19Z</time>
      </trkpt>
      <trkpt lat="44.57522" lon="2.62211">
        <ele>666.151</ele>
        <time>2013-06-21T10:42:45Z</time>
      </trkpt>
      <trkpt lat="44.57526" lon="2.62206">
        <ele>666.606</ele>
        <time>2013-06-21T10:43:16Z</time>
      </trkpt>
      <trkpt lat="44.57552" lon="2.62185">
        <ele>667.151</ele>
        <time>2013-06-21T10:43:45Z</time>
      </trkpt>
      <trkpt lat="44.57579" lon="2.62172">
        <ele>666.161</ele>
        <time>2013-06-21T10:44:12Z</time>
      </trkpt>
      <trkpt lat="44.57606" lon="2.62167">
        <ele>664.169</ele>
        <time>2013-06-21T10:44:38Z</time>
      </trkpt>
      <trkpt lat="44.57635" lon="2.62156">
        <ele>662.227</ele>
        <time>2013-06-21T10:45:07Z</time>
      </trkpt>
      <trkpt lat="44.5766" lon="2.62147">
        <ele>658.734</ele>
        <time>2013-06-21T10:45:33Z</time>
      </trkpt>
      <trkpt lat="44.57675" lon="2.62142">
        <ele>655.702</ele>
        <time>2013-06-21T10:45:49Z</time>
      </trkpt>
      <trkpt lat="44.57681" lon="2.62141">
        <ele>654.747</ele>
        <time>2013-06-21T10:46:17Z</time>
      </trkpt>
      <trkpt lat="44.5768" lon="2.62138">
        <ele>654.516</ele>
        <time>2013-06-21T10:46:34Z</time>
      </trkpt>
      <trkpt lat="44.57663" lon="2.621">
        <ele>655.471</ele>
        <time>2013-06-21T10:47:06Z</time>
      </trkpt>
      <trkpt lat="44.57656" lon="2.62085">
        <ele>657.301</ele>
        <time>2013-06-21T10:47:27Z</time>
      </trkpt>
      <trkpt lat="44.5765" lon="2.6208">
        <ele>660.479</ele>
        <time>2013-06-21T10:47:40Z</time>
      </trkpt>
      <trkpt lat="44.57645" lon="2.62076">
        <ele>661.699</ele>
        <time>2013-06-21T10:48:01Z</time>
      </trkpt>
      <trkpt lat="44.57641" lon="2.62072">
        <ele>662.36</ele>
        <time>2013-06-21T10:48:21Z</time>
      </trkpt>
      <trkpt lat="44.5764" lon="2.62071">
        <ele>660.771</ele>
        <time>2013-06-21T10:48:35Z</time>
      </trkpt>
      <trkpt lat="44.57628" lon="2.62079">
        <ele>660.874</ele>
        <time>2013-06-21T10:49:14Z</time>
      </trkpt>
      <trkpt lat="44.57632" lon="2.62071">
        <ele>659.658</ele>
        <time>2013-06-21T10:49:37Z</time>
      </trkpt>
      <trkpt lat="44.57634" lon="2.62072">
        <ele>661.988</ele>
        <time>2013-06-21T10:49:39Z</time>
      </trkpt>
      <trkpt lat="44.57634" lon="2.62071">
        <ele>660.917</ele>
        <time>2013-06-21T10:49:40Z</time>
      </trkpt>
      <trkpt lat="44.57641" lon="2.62071">
        <ele>660.275</ele>
        <time>2013-06-21T10:50:03Z</time>
      </trkpt>
      <trkpt lat="44.57647" lon="2.62069">
        <ele>660.208</ele>
        <time>2013-06-21T10:50:33Z</time>
      </trkpt>
      <trkpt lat="44.57642" lon="2.62067">
        <ele>660.883</ele>
        <time>2013-06-21T10:51:06Z</time>
      </trkpt>
      <trkpt lat="44.57642" lon="2.62059">
        <ele>659.667</ele>
        <time>2013-06-21T10:53:59Z</time>
      </trkpt>
      <trkpt lat="44.57639" lon="2.62067">
        <ele>660.352</ele>
        <time>2013-06-21T11:01:35Z</time>
      </trkpt>
      <trkpt lat="44.57639" lon="2.62068">
        <ele>659.103</ele>
        <time>2013-06-21T11:03:08Z</time>
      </trkpt>
      <trkpt lat="44.57639" lon="2.62068">
        <ele>662.306</ele>
        <time>2013-06-21T11:03:10Z</time>
      </trkpt>
      <trkpt lat="44.57639" lon="2.62068">
        <ele>658.606</ele>
        <time>2013-06-21T11:03:11Z</time>
      </trkpt>
      <trkpt lat="44.5764" lon="2.62068">
        <ele>662</ele>
        <time>2013-06-21T11:03:12Z</time>
      </trkpt>
      <trkpt lat="44.5764" lon="2.62069">
        <ele>660.152</ele>
        <time>2013-06-21T11:03:15Z</time>
      </trkpt>
      <trkpt lat="44.57643" lon="2.62068">
        <ele>660.682</ele>
        <time>2013-06-21T11:04:22Z</time>
      </trkpt>
      <trkpt lat="44.57643" lon="2.62074">
        <ele>660.124</ele>
        <time>2013-06-21T11:07:11Z</time>
      </trkpt>
      <trkpt lat="44.57642" lon="2.62067">
        <ele>661.126</ele>
        <time>2013-06-21T11:08:04Z</time>
      </trkpt>
      <trkpt lat="44.57642" lon="2.62067">
        <ele>660.772</ele>
        <time>2013-06-21T11:08:26Z</time>
      </trkpt>
      <trkpt lat="44.57641" lon="2.62072">
        <ele>659.852</ele>
        <time>2013-06-21T11:08:55Z</time>
      </trkpt>
      <trkpt lat="44.57643" lon="2.62072">
        <ele>660.023</ele>
        <time>2013-06-21T11:09:17Z</time>
      </trkpt>
      <trkpt lat="44.57645" lon="2.62065">
        <ele>660.04</ele>
        <time>2013-06-21T11:09:56Z</time>
      </trkpt>
      <trkpt lat="44.57643" lon="2.62066">
        <ele>660.418</ele>
        <time>2013-06-21T11:10:31Z</time>
      </trkpt>
      <trkpt lat="44.57644" lon="2.6207">
        <ele>660.171</ele>
        <time>2013-06-21T11:10:54Z</time>
      </trkpt>
      <trkpt lat="44.57643" lon="2.62072">
        <ele>660.265</ele>
        <time>2013-06-21T11:11:24Z</time>
      </trkpt>
      <trkpt lat="44.57645" lon="2.62071">
        <ele>659.953</ele>
        <time>2013-06-21T11:11:53Z</time>
      </trkpt>
      <trkpt lat="44.57646" lon="2.62071">
        <ele>659.796</ele>
        <time>2013-06-21T11:12:17Z</time>
      </trkpt>
      <trkpt lat="44.57645" lon="2.62073">
        <ele>659.607</ele>
        <time>2013-06-21T11:12:40Z</time>
      </trkpt>
      <trkpt lat="44.57644" lon="2.62073">
        <ele>660.352</ele>
        <time>2013-06-21T11:13:01Z</time>
      </trkpt>
      <trkpt lat="44.57645" lon="2.62071">
        <ele>660.181</ele>
        <time>2013-06-21T11:13:27Z</time>
      </trkpt>
      <trkpt lat="44.57644" lon="2.62072">
        <ele>660.211</ele>
        <time>2013-06-21T11:13:59Z</time>
      </trkpt>
      <trkpt lat="44.57644" lon="2.62084">
        <ele>660.879</ele>
        <time>2013-06-21T11:14:34Z</time>
      </trkpt>
      <trkpt lat="44.57643" lon="2.6209">
        <ele>660.861</ele>
        <time>2013-06-21T11:14:50Z</time>
      </trkpt>
      <trkpt lat="44.57641" lon="2.62072">
        <ele>660.447</ele>
        <time>2013-06-21T11:15:34Z</time>
      </trkpt>
      <trkpt lat="44.57645" lon="2.62071">
        <ele>661.453</ele>
        <time>2013-06-21T11:16:13Z</time>
      </trkpt>
      <trkpt lat="44.57645" lon="2.62072">
        <ele>661.46</ele>
        <time>2013-06-21T11:16:40Z</time>
      </trkpt>
      <trkpt lat="44.57647" lon="2.62072">
        <ele>662.008</ele>
        <time>2013-06-21T11:17:07Z</time>
      </trkpt>
      <trkpt lat="44.57652" lon="2.62068">
        <ele>662.296</ele>
        <time>2013-06-21T11:17:28Z</time>
      </trkpt>
      <trkpt lat="44.57645" lon="2.62071">
        <ele>662.283</ele>
        <time>2013-06-21T11:17:50Z</time>
      </trkpt>
      <trkpt lat="44.57644" lon="2.62071">
        <ele>662.49</ele>
        <time>2013-06-21T11:18:28Z</time>
      </trkpt>
      <trkpt lat="44.57643" lon="2.62083">
        <ele>662.383</ele>
        <time>2013-06-21T11:18:50Z</time>
      </trkpt>
      <trkpt lat="44.57646" lon="2.62068">
        <ele>662.292</ele>
        <time>2013-06-21T11:19:09Z</time>
      </trkpt>
      <trkpt lat="44.57644" lon="2.6207">
        <ele>662.551</ele>
        <time>2013-06-21T11:19:30Z</time>
      </trkpt>
      <trkpt lat="44.57642" lon="2.62073">
        <ele>662.517</ele>
        <time>2013-06-21T11:20:01Z</time>
      </trkpt>
      <trkpt lat="44.57637" lon="2.62071">
        <ele>656.181</ele>
        <time>2013-06-21T11:20:17Z</time>
      </trkpt>
      <trkpt lat="44.57637" lon="2.62071">
        <ele>631.343</ele>
        <time>2013-06-21T11:20:18Z</time>
      </trkpt>
      <trkpt lat="44.57637" lon="2.62071">
        <ele>667.201</ele>
        <time>2013-06-21T11:20:19Z</time>
      </trkpt>
      <trkpt lat="44.57636" lon="2.6207">
        <ele>663.614</ele>
        <time>2013-06-21T11:20:20Z</time>
      </trkpt>
      <trkpt lat="44.57637" lon="2.62073">
        <ele>663.452</ele>
        <time>2013-06-21T11:20:43Z</time>
      </trkpt>
      <trkpt lat="44.57638" lon="2.62073">
        <ele>663.044</ele>
        <time>2013-06-21T11:21:07Z</time>
      </trkpt>
      <trkpt lat="44.57639" lon="2.62073">
        <ele>656.854</ele>
        <time>2013-06-21T11:21:29Z</time>
      </trkpt>
      <trkpt lat="44.57639" lon="2.62073">
        <ele>664.138</ele>
        <time>2013-06-21T11:21:30Z</time>
      </trkpt>
      <trkpt lat="44.5764" lon="2.62072">
        <ele>664.464</ele>
        <time>2013-06-21T11:21:45Z</time>
      </trkpt>
      <trkpt lat="44.5764" lon="2.62072">
        <ele>663.69</ele>
        <time>2013-06-21T11:22:10Z</time>
      </trkpt>
      <trkpt lat="44.5764" lon="2.62074">
        <ele>663.746</ele>
        <time>2013-06-21T11:22:34Z</time>
      </trkpt>
      <trkpt lat="44.57639" lon="2.62072">
        <ele>663.583</ele>
        <time>2013-06-21T11:22:39Z</time>
      </trkpt>
      <trkpt lat="44.57637" lon="2.62075">
        <ele>664.95</ele>
        <time>2013-06-21T11:22:54Z</time>
      </trkpt>
      <trkpt lat="44.57644" lon="2.62082">
        <ele>663.523</ele>
        <time>2013-06-21T11:23:19Z</time>
      </trkpt>
      <trkpt lat="44.57652" lon="2.62086">
        <ele>659.921</ele>
        <time>2013-06-21T11:23:36Z</time>
      </trkpt>
      <trkpt lat="44.57663" lon="2.62102">
        <ele>658.144</ele>
        <time>2013-06-21T11:23:56Z</time>
      </trkpt>
      <trkpt lat="44.57672" lon="2.6212">
        <ele>656.84</ele>
        <time>2013-06-21T11:24:15Z</time>
      </trkpt>
      <trkpt lat="44.57681" lon="2.62136">
        <ele>657.679</ele>
        <time>2013-06-21T11:24:38Z</time>
      </trkpt>
      <trkpt lat="44.57687" lon="2.62138">
        <ele>656.724</ele>
        <time>2013-06-21T11:25:03Z</time>
      </trkpt>
      <trkpt lat="44.57701" lon="2.6212">
        <ele>654.882</ele>
        <time>2013-06-21T11:25:27Z</time>
      </trkpt>
      <trkpt lat="44.57705" lon="2.62103">
        <ele>652.803</ele>
        <time>2013-06-21T11:25:52Z</time>
      </trkpt>
      <trkpt lat="44.57711" lon="2.62095">
        <ele>651.919</ele>
        <time>2013-06-21T11:26:08Z</time>
      </trkpt>
      <trkpt lat="44.5772" lon="2.62086">
        <ele>651.246</ele>
        <time>2013-06-21T11:26:25Z</time>
      </trkpt>
      <trkpt lat="44.57719" lon="2.6207">
        <ele>650.77</ele>
        <time>2013-06-21T11:26:46Z</time>
      </trkpt>
      <trkpt lat="44.57718" lon="2.62071">
        <ele>651.03</ele>
        <time>2013-06-21T11:27:04Z</time>
      </trkpt>
      <trkpt lat="44.5772" lon="2.62075">
        <ele>651.337</ele>
        <time>2013-06-21T11:27:26Z</time>
      </trkpt>
      <trkpt lat="44.5772" lon="2.6207">
        <ele>650.606</ele>
        <time>2013-06-21T11:27:49Z</time>
      </trkpt>
      <trkpt lat="44.57731" lon="2.62064">
        <ele>649.659</ele>
        <time>2013-06-21T11:28:05Z</time>
      </trkpt>
      <trkpt lat="44.57745" lon="2.6205">
        <ele>647.396</ele>
        <time>2013-06-21T11:28:27Z</time>
      </trkpt>
      <trkpt lat="44.5776" lon="2.62029">
        <ele>644.66</ele>
        <time>2013-06-21T11:28:47Z</time>
      </trkpt>
      <trkpt lat="44.5777" lon="2.62015">
        <ele>642.648</ele>
        <time>2013-06-21T11:29:02Z</time>
      </trkpt>
      <trkpt lat="44.57781" lon="2.62008">
        <ele>640.442</ele>
        <time>2013-06-21T11:29:19Z</time>
      </trkpt>
      <trkpt lat="44.57798" lon="2.62009">
        <ele>637.36</ele>
        <time>2013-06-21T11:29:36Z</time>
      </trkpt>
      <trkpt lat="44.57819" lon="2.62011">
        <ele>635.307</ele>
        <time>2013-06-21T11:29:57Z</time>
      </trkpt>
      <trkpt lat="44.57841" lon="2.62013">
        <ele>632.849</ele>
        <time>2013-06-21T11:30:20Z</time>
      </trkpt>
      <trkpt lat="44.57863" lon="2.62019">
        <ele>630.696</ele>
        <time>2013-06-21T11:30:41Z</time>
      </trkpt>
      <trkpt lat="44.57883" lon="2.62026">
        <ele>628.711</ele>
        <time>2013-06-21T11:31:02Z</time>
      </trkpt>
      <trkpt lat="44.57902" lon="2.62033">
        <ele>625.386</ele>
        <time>2013-06-21T11:31:21Z</time>
      </trkpt>
      <trkpt lat="44.57918" lon="2.62039">
        <ele>623.719</ele>
        <time>2013-06-21T11:31:40Z</time>
      </trkpt>
      <trkpt lat="44.57938" lon="2.62048">
        <ele>622.001</ele>
        <time>2013-06-21T11:31:59Z</time>
      </trkpt>
      <trkpt lat="44.57959" lon="2.62052">
        <ele>618.866</ele>
        <time>2013-06-21T11:32:20Z</time>
      </trkpt>
      <trkpt lat="44.57982" lon="2.6205">
        <ele>616.408</ele>
        <time>2013-06-21T11:32:44Z</time>
      </trkpt>
      <trkpt lat="44.57988" lon="2.62046">
        <ele>616.047</ele>
        <time>2013-06-21T11:32:51Z</time>
      </trkpt>
      <trkpt lat="44.58002" lon="2.62027">
        <ele>613.72</ele>
        <time>2013-06-21T11:33:09Z</time>
      </trkpt>
      <trkpt lat="44.58006" lon="2.6202">
        <ele>612.347</ele>
        <time>2013-06-21T11:33:22Z</time>
      </trkpt>
      <trkpt lat="44.58013" lon="2.62003">
        <ele>609.922</ele>
        <time>2013-06-21T11:33:35Z</time>
      </trkpt>
      <trkpt lat="44.58022" lon="2.61982">
        <ele>608.627</ele>
        <time>2013-06-21T11:33:49Z</time>
      </trkpt>
      <trkpt lat="44.58034" lon="2.61954">
        <ele>606.439</ele>
        <time>2013-06-21T11:34:08Z</time>
      </trkpt>
      <trkpt lat="44.58052" lon="2.61926">
        <ele>604.43</ele>
        <time>2013-06-21T11:34:31Z</time>
      </trkpt>
      <trkpt lat="44.58077" lon="2.61904">
        <ele>604.215</ele>
        <time>2013-06-21T11:34:58Z</time>
      </trkpt>
      <trkpt lat="44.58099" lon="2.61893">
        <ele>605.932</ele>
        <time>2013-06-21T11:35:22Z</time>
      </trkpt>
      <trkpt lat="44.58122" lon="2.61882">
        <ele>609.189</ele>
        <time>2013-06-21T11:35:50Z</time>
      </trkpt>
      <trkpt lat="44.58138" lon="2.61871">
        <ele>611.016</ele>
        <time>2013-06-21T11:36:11Z</time>
      </trkpt>
      <trkpt lat="44.58151" lon="2.61866">
        <ele>611.966</ele>
        <time>2013-06-21T11:36:30Z</time>
      </trkpt>
      <trkpt lat="44.58155" lon="2.61864">
        <ele>612.031</ele>
        <time>2013-06-21T11:36:47Z</time>
      </trkpt>
      <trkpt lat="44.58157" lon="2.61864">
        <ele>612.134</ele>
        <time>2013-06-21T11:37:02Z</time>
      </trkpt>
      <trkpt lat="44.58158" lon="2.61862">
        <ele>611.851</ele>
        <time>2013-06-21T11:37:24Z</time>
      </trkpt>
      <trkpt lat="44.58171" lon="2.61861">
        <ele>610.757</ele>
        <time>2013-06-21T11:37:50Z</time>
      </trkpt>
      <trkpt lat="44.58197" lon="2.61851">
        <ele>609.364</ele>
        <time>2013-06-21T11:38:17Z</time>
      </trkpt>
      <trkpt lat="44.58213" lon="2.61848">
        <ele>608.95</ele>
        <time>2013-06-21T11:38:35Z</time>
      </trkpt>
      <trkpt lat="44.58226" lon="2.61844">
        <ele>608.079</ele>
        <time>2013-06-21T11:38:51Z</time>
      </trkpt>
      <trkpt lat="44.58245" lon="2.61846">
        <ele>606.973</ele>
        <time>2013-06-21T11:39:11Z</time>
      </trkpt>
      <trkpt lat="44.58262" lon="2.6184">
        <ele>605.865</ele>
        <time>2013-06-21T11:39:28Z</time>
      </trkpt>
      <trkpt lat="44.58278" lon="2.61837">
        <ele>604.97</ele>
        <time>2013-06-21T11:39:45Z</time>
      </trkpt>
      <trkpt lat="44.58288" lon="2.61835">
        <ele>604.668</ele>
        <time>2013-06-21T11:39:56Z</time>
      </trkpt>
      <trkpt lat="44.58299" lon="2.61833">
        <ele>603.653</ele>
        <time>2013-06-21T11:40:08Z</time>
      </trkpt>
      <trkpt lat="44.58311" lon="2.61828">
        <ele>603.266</ele>
        <time>2013-06-21T11:40:22Z</time>
      </trkpt>
      <trkpt lat="44.58322" lon="2.61826">
        <ele>603.313</ele>
        <time>2013-06-21T11:40:36Z</time>
      </trkpt>
      <trkpt lat="44.58339" lon="2.6181">
        <ele>602.15</ele>
        <time>2013-06-21T11:40:52Z</time>
      </trkpt>
      <trkpt lat="44.58353" lon="2.61791">
        <ele>602.389</ele>
        <time>2013-06-21T11:41:03Z</time>
      </trkpt>
      <trkpt lat="44.58362" lon="2.61779">
        <ele>601.244</ele>
        <time>2013-06-21T11:41:13Z</time>
      </trkpt>
      <trkpt lat="44.58377" lon="2.61765">
        <ele>600.867</ele>
        <time>2013-06-21T11:41:27Z</time>
      </trkpt>
      <trkpt lat="44.58399" lon="2.61751">
        <ele>599.82</ele>
        <time>2013-06-21T11:41:52Z</time>
      </trkpt>
      <trkpt lat="44.58411" lon="2.61742">
        <ele>599.805</ele>
        <time>2013-06-21T11:42:03Z</time>
      </trkpt>
      <trkpt lat="44.58421" lon="2.61743">
        <ele>599.01</ele>
        <time>2013-06-21T11:42:16Z</time>
      </trkpt>
      <trkpt lat="44.58431" lon="2.61739">
        <ele>598.532</ele>
        <time>2013-06-21T11:42:30Z</time>
      </trkpt>
      <trkpt lat="44.5844" lon="2.61734">
        <ele>597.43</ele>
        <time>2013-06-21T11:42:43Z</time>
      </trkpt>
      <trkpt lat="44.58451" lon="2.61719">
        <ele>597.764</ele>
        <time>2013-06-21T11:42:55Z</time>
      </trkpt>
      <trkpt lat="44.58461" lon="2.61702">
        <ele>597.255</ele>
        <time>2013-06-21T11:43:07Z</time>
      </trkpt>
      <trkpt lat="44.5847" lon="2.61692">
        <ele>596.031</ele>
        <time>2013-06-21T11:43:19Z</time>
      </trkpt>
      <trkpt lat="44.58481" lon="2.61682">
        <ele>595.566</ele>
        <time>2013-06-21T11:43:32Z</time>
      </trkpt>
      <trkpt lat="44.58495" lon="2.6167">
        <ele>595.072</ele>
        <time>2013-06-21T11:43:45Z</time>
      </trkpt>
      <trkpt lat="44.58507" lon="2.61657">
        <ele>594.154</ele>
        <time>2013-06-21T11:44:00Z</time>
      </trkpt>
      <trkpt lat="44.58518" lon="2.61645">
        <ele>593.328</ele>
        <time>2013-06-21T11:44:13Z</time>
      </trkpt>
      <trkpt lat="44.58534" lon="2.61628">
        <ele>593.533</ele>
        <time>2013-06-21T11:44:30Z</time>
      </trkpt>
      <trkpt lat="44.58545" lon="2.61622">
        <ele>592.726</ele>
        <time>2013-06-21T11:44:41Z</time>
      </trkpt>
      <trkpt lat="44.58563" lon="2.6161">
        <ele>592.072</ele>
        <time>2013-06-21T11:44:59Z</time>
      </trkpt>
      <trkpt lat="44.58572" lon="2.61605">
        <ele>592.38</ele>
        <time>2013-06-21T11:45:08Z</time>
      </trkpt>
      <trkpt lat="44.58579" lon="2.61602">
        <ele>592.181</ele>
        <time>2013-06-21T11:45:16Z</time>
      </trkpt>
      <trkpt lat="44.58583" lon="2.61601">
        <ele>591.851</ele>
        <time>2013-06-21T11:45:20Z</time>
      </trkpt>
      <trkpt lat="44.58595" lon="2.61579">
        <ele>590.535</ele>
        <time>2013-06-21T11:45:41Z</time>
      </trkpt>
      <trkpt lat="44.58598" lon="2.61569">
        <ele>590.836</ele>
        <time>2013-06-21T11:45:51Z</time>
      </trkpt>
      <trkpt lat="44.58608" lon="2.61543">
        <ele>590.761</ele>
        <time>2013-06-21T11:46:11Z</time>
      </trkpt>
      <trkpt lat="44.58624" lon="2.61519">
        <ele>592.007</ele>
        <time>2013-06-21T11:46:35Z</time>
      </trkpt>
      <trkpt lat="44.58632" lon="2.61492">
        <ele>591.042</ele>
        <time>2013-06-21T11:46:58Z</time>
      </trkpt>
      <trkpt lat="44.58635" lon="2.61483">
        <ele>590.474</ele>
        <time>2013-06-21T11:47:15Z</time>
      </trkpt>
      <trkpt lat="44.58634" lon="2.61489">
        <ele>590.5</ele>
        <time>2013-06-21T11:48:01Z</time>
      </trkpt>
      <trkpt lat="44.58638" lon="2.6149">
        <ele>590.909</ele>
        <time>2013-06-21T11:48:07Z</time>
      </trkpt>
      <trkpt lat="44.58635" lon="2.61493">
        <ele>590.732</ele>
        <time>2013-06-21T11:48:25Z</time>
      </trkpt>
      <trkpt lat="44.58634" lon="2.61492">
        <ele>590.544</ele>
        <time>2013-06-21T11:48:47Z</time>
      </trkpt>
      <trkpt lat="44.58635" lon="2.6149">
        <ele>590.153</ele>
        <time>2013-06-21T11:49:11Z</time>
      </trkpt>
      <trkpt lat="44.58642" lon="2.61482">
        <ele>589.595</ele>
        <time>2013-06-21T11:49:27Z</time>
      </trkpt>
      <trkpt lat="44.58654" lon="2.6147">
        <ele>589.017</ele>
        <time>2013-06-21T11:49:43Z</time>
      </trkpt>
      <trkpt lat="44.58665" lon="2.61455">
        <ele>587.512</ele>
        <time>2013-06-21T11:49:59Z</time>
      </trkpt>
      <trkpt lat="44.58672" lon="2.61444">
        <ele>587.298</ele>
        <time>2013-06-21T11:50:08Z</time>
      </trkpt>
      <trkpt lat="44.5867" lon="2.6143">
        <ele>586.196</ele>
        <time>2013-06-21T11:50:22Z</time>
      </trkpt>
      <trkpt lat="44.58661" lon="2.61421">
        <ele>584.865</ele>
        <time>2013-06-21T11:50:37Z</time>
      </trkpt>
      <trkpt lat="44.58652" lon="2.61401">
        <ele>583.663</ele>
        <time>2013-06-21T11:50:55Z</time>
      </trkpt>
      <trkpt lat="44.58643" lon="2.61393">
        <ele>582.083</ele>
        <time>2013-06-21T11:51:09Z</time>
      </trkpt>
      <trkpt lat="44.58631" lon="2.61381">
        <ele>579.947</ele>
        <time>2013-06-21T11:51:24Z</time>
      </trkpt>
      <trkpt lat="44.58628" lon="2.61376">
        <ele>580.185</ele>
        <time>2013-06-21T11:51:29Z</time>
      </trkpt>
      <trkpt lat="44.58616" lon="2.61367">
        <ele>579.021</ele>
        <time>2013-06-21T11:51:41Z</time>
      </trkpt>
      <trkpt lat="44.58613" lon="2.61349">
        <ele>577.789</ele>
        <time>2013-06-21T11:51:53Z</time>
      </trkpt>
      <trkpt lat="44.58613" lon="2.61345">
        <ele>577.08</ele>
        <time>2013-06-21T11:52:04Z</time>
      </trkpt>
      <trkpt lat="44.5862" lon="2.61334">
        <ele>576.085</ele>
        <time>2013-06-21T11:52:17Z</time>
      </trkpt>
      <trkpt lat="44.58627" lon="2.61319">
        <ele>575.737</ele>
        <time>2013-06-21T11:52:32Z</time>
      </trkpt>
      <trkpt lat="44.58628" lon="2.61318">
        <ele>575.058</ele>
        <time>2013-06-21T11:52:33Z</time>
      </trkpt>
      <trkpt lat="44.58638" lon="2.61307">
        <ele>575.186</ele>
        <time>2013-06-21T11:52:48Z</time>
      </trkpt>
      <trkpt lat="44.58646" lon="2.61294">
        <ele>574.767</ele>
        <time>2013-06-21T11:53:00Z</time>
      </trkpt>
      <trkpt lat="44.58657" lon="2.61269">
        <ele>573.836</ele>
        <time>2013-06-21T11:53:17Z</time>
      </trkpt>
      <trkpt lat="44.58664" lon="2.61249">
        <ele>573.962</ele>
        <time>2013-06-21T11:53:28Z</time>
      </trkpt>
      <trkpt lat="44.58668" lon="2.61227">
        <ele>573.684</ele>
        <time>2013-06-21T11:53:43Z</time>
      </trkpt>
      <trkpt lat="44.58673" lon="2.61205">
        <ele>573.493</ele>
        <time>2013-06-21T11:53:54Z</time>
      </trkpt>
      <trkpt lat="44.5867" lon="2.61181">
        <ele>572.537</ele>
        <time>2013-06-21T11:54:08Z</time>
      </trkpt>
      <trkpt lat="44.58666" lon="2.6117">
        <ele>572.504</ele>
        <time>2013-06-21T11:54:17Z</time>
      </trkpt>
      <trkpt lat="44.58645" lon="2.61159">
        <ele>572.126</ele>
        <time>2013-06-21T11:54:32Z</time>
      </trkpt>
      <trkpt lat="44.58632" lon="2.61152">
        <ele>571.679</ele>
        <time>2013-06-21T11:54:44Z</time>
      </trkpt>
      <trkpt lat="44.58628" lon="2.61154">
        <ele>571.783</ele>
        <time>2013-06-21T11:54:54Z</time>
      </trkpt>
      <trkpt lat="44.58634" lon="2.6115">
        <ele>570.694</ele>
        <time>2013-06-21T11:55:08Z</time>
      </trkpt>
      <trkpt lat="44.58647" lon="2.61136">
        <ele>569.999</ele>
        <time>2013-06-21T11:55:19Z</time>
      </trkpt>
      <trkpt lat="44.58656" lon="2.61119">
        <ele>569.8</ele>
        <time>2013-06-21T11:55:30Z</time>
      </trkpt>
      <trkpt lat="44.58668" lon="2.61103">
        <ele>569.031</ele>
        <time>2013-06-21T11:55:43Z</time>
      </trkpt>
      <trkpt lat="44.58683" lon="2.611">
        <ele>568.576</ele>
        <time>2013-06-21T11:55:56Z</time>
      </trkpt>
      <trkpt lat="44.58691" lon="2.611">
        <ele>567.981</ele>
        <time>2013-06-21T11:56:05Z</time>
      </trkpt>
      <trkpt lat="44.58703" lon="2.61093">
        <ele>566.863</ele>
        <time>2013-06-21T11:56:19Z</time>
      </trkpt>
      <trkpt lat="44.58723" lon="2.611">
        <ele>565.951</ele>
        <time>2013-06-21T11:56:38Z</time>
      </trkpt>
      <trkpt lat="44.58735" lon="2.61104">
        <ele>566.463</ele>
        <time>2013-06-21T11:56:47Z</time>
      </trkpt>
      <trkpt lat="44.58755" lon="2.61106">
        <ele>564.128</ele>
        <time>2013-06-21T11:57:04Z</time>
      </trkpt>
      <trkpt lat="44.58772" lon="2.61103">
        <ele>563.009</ele>
        <time>2013-06-21T11:57:21Z</time>
      </trkpt>
      <trkpt lat="44.58786" lon="2.61101">
        <ele>562.71</ele>
        <time>2013-06-21T11:57:34Z</time>
      </trkpt>
      <trkpt lat="44.58803" lon="2.61103">
        <ele>561.851</ele>
        <time>2013-06-21T11:57:51Z</time>
      </trkpt>
      <trkpt lat="44.58815" lon="2.611">
        <ele>562.295</ele>
        <time>2013-06-21T11:58:05Z</time>
      </trkpt>
      <trkpt lat="44.58824" lon="2.61097">
        <ele>563.542</ele>
        <time>2013-06-21T11:58:17Z</time>
      </trkpt>
      <trkpt lat="44.58831" lon="2.61083">
        <ele>565.267</ele>
        <time>2013-06-21T11:58:32Z</time>
      </trkpt>
      <trkpt lat="44.58842" lon="2.61065">
        <ele>568.608</ele>
        <time>2013-06-21T11:58:48Z</time>
      </trkpt>
      <trkpt lat="44.58849" lon="2.61045">
        <ele>569.758</ele>
        <time>2013-06-21T11:59:05Z</time>
      </trkpt>
      <trkpt lat="44.5885" lon="2.61031">
        <ele>570.72</ele>
        <time>2013-06-21T11:59:23Z</time>
      </trkpt>
      <trkpt lat="44.58853" lon="2.61017">
        <ele>572.252</ele>
        <time>2013-06-21T11:59:38Z</time>
      </trkpt>
      <trkpt lat="44.58852" lon="2.61001">
        <ele>574.466</ele>
        <time>2013-06-21T11:59:57Z</time>
      </trkpt>
      <trkpt lat="44.58853" lon="2.60987">
        <ele>575.362</ele>
        <time>2013-06-21T12:00:11Z</time>
      </trkpt>
      <trkpt lat="44.58849" lon="2.60973">
        <ele>577.397</ele>
        <time>2013-06-21T12:00:26Z</time>
      </trkpt>
      <trkpt lat="44.58845" lon="2.60958">
        <ele>580.424</ele>
        <time>2013-06-21T12:00:43Z</time>
      </trkpt>
      <trkpt lat="44.5884" lon="2.60945">
        <ele>580.916</ele>
        <time>2013-06-21T12:00:57Z</time>
      </trkpt>
      <trkpt lat="44.58831" lon="2.60929">
        <ele>582.757</ele>
        <time>2013-06-21T12:01:17Z</time>
      </trkpt>
      <trkpt lat="44.58825" lon="2.60914">
        <ele>584.736</ele>
        <time>2013-06-21T12:01:33Z</time>
      </trkpt>
      <trkpt lat="44.58815" lon="2.60899">
        <ele>584.928</ele>
        <time>2013-06-21T12:01:49Z</time>
      </trkpt>
      <trkpt lat="44.58808" lon="2.60886">
        <ele>584.589</ele>
        <time>2013-06-21T12:02:05Z</time>
      </trkpt>
      <trkpt lat="44.58804" lon="2.60868">
        <ele>585</ele>
        <time>2013-06-21T12:02:20Z</time>
      </trkpt>
      <trkpt lat="44.58801" lon="2.60858">
        <ele>585.11</ele>
        <time>2013-06-21T12:02:39Z</time>
      </trkpt>
      <trkpt lat="44.58801" lon="2.6085">
        <ele>584.569</ele>
        <time>2013-06-21T12:02:49Z</time>
      </trkpt>
      <trkpt lat="44.58801" lon="2.60847">
        <ele>584.857</ele>
        <time>2013-06-21T12:02:52Z</time>
      </trkpt>
      <trkpt lat="44.58805" lon="2.60837">
        <ele>584.897</ele>
        <time>2013-06-21T12:03:03Z</time>
      </trkpt>
      <trkpt lat="44.58811" lon="2.6082">
        <ele>585.264</ele>
        <time>2013-06-21T12:03:15Z</time>
      </trkpt>
      <trkpt lat="44.5881" lon="2.60796">
        <ele>586.809</ele>
        <time>2013-06-21T12:03:39Z</time>
      </trkpt>
      <trkpt lat="44.58818" lon="2.60776">
        <ele>587.37</ele>
        <time>2013-06-21T12:03:54Z</time>
      </trkpt>
      <trkpt lat="44.58825" lon="2.60757">
        <ele>588.564</ele>
        <time>2013-06-21T12:04:10Z</time>
      </trkpt>
      <trkpt lat="44.58826" lon="2.6074">
        <ele>589.739</ele>
        <time>2013-06-21T12:04:26Z</time>
      </trkpt>
      <trkpt lat="44.58829" lon="2.60726">
        <ele>589.863</ele>
        <time>2013-06-21T12:04:38Z</time>
      </trkpt>
      <trkpt lat="44.58827" lon="2.60711">
        <ele>588.986</ele>
        <time>2013-06-21T12:04:49Z</time>
      </trkpt>
      <trkpt lat="44.58823" lon="2.60685">
        <ele>589.432</ele>
        <time>2013-06-21T12:05:07Z</time>
      </trkpt>
      <trkpt lat="44.5883" lon="2.60667">
        <ele>588.838</ele>
        <time>2013-06-21T12:05:21Z</time>
      </trkpt>
      <trkpt lat="44.58843" lon="2.60658">
        <ele>590.453</ele>
        <time>2013-06-21T12:05:38Z</time>
      </trkpt>
      <trkpt lat="44.58852" lon="2.60654">
        <ele>591.851</ele>
        <time>2013-06-21T12:05:51Z</time>
      </trkpt>
      <trkpt lat="44.58861" lon="2.60655">
        <ele>592.193</ele>
        <time>2013-06-21T12:06:04Z</time>
      </trkpt>
      <trkpt lat="44.5887" lon="2.60654">
        <ele>592.935</ele>
        <time>2013-06-21T12:06:17Z</time>
      </trkpt>
      <trkpt lat="44.58876" lon="2.60652">
        <ele>594.491</ele>
        <time>2013-06-21T12:06:28Z</time>
      </trkpt>
      <trkpt lat="44.58871" lon="2.60652">
        <ele>595.391</ele>
        <time>2013-06-21T12:06:43Z</time>
      </trkpt>
      <trkpt lat="44.58866" lon="2.60653">
        <ele>596.839</ele>
        <time>2013-06-21T12:06:56Z</time>
      </trkpt>
      <trkpt lat="44.5886" lon="2.60645">
        <ele>597.947</ele>
        <time>2013-06-21T12:07:09Z</time>
      </trkpt>
      <trkpt lat="44.58851" lon="2.60627">
        <ele>598.55</ele>
        <time>2013-06-21T12:07:24Z</time>
      </trkpt>
      <trkpt lat="44.58844" lon="2.60614">
        <ele>599.12</ele>
        <time>2013-06-21T12:07:37Z</time>
      </trkpt>
      <trkpt lat="44.58843" lon="2.606">
        <ele>600.815</ele>
        <time>2013-06-21T12:07:50Z</time>
      </trkpt>
      <trkpt lat="44.58846" lon="2.60577">
        <ele>602.755</ele>
        <time>2013-06-21T12:08:05Z</time>
      </trkpt>
      <trkpt lat="44.58846" lon="2.60554">
        <ele>602.674</ele>
        <time>2013-06-21T12:08:21Z</time>
      </trkpt>
      <trkpt lat="44.58848" lon="2.60524">
        <ele>604.948</ele>
        <time>2013-06-21T12:08:42Z</time>
      </trkpt>
      <trkpt lat="44.58847" lon="2.60493">
        <ele>605.74</ele>
        <time>2013-06-21T12:09:05Z</time>
      </trkpt>
      <trkpt lat="44.58847" lon="2.60488">
        <ele>605.393</ele>
        <time>2013-06-21T12:09:22Z</time>
      </trkpt>
      <trkpt lat="44.58848" lon="2.60488">
        <ele>605.357</ele>
        <time>2013-06-21T12:12:02Z</time>
      </trkpt>
      <trkpt lat="44.58849" lon="2.60489">
        <ele>603.28</ele>
        <time>2013-06-21T12:16:59Z</time>
      </trkpt>
      <trkpt lat="44.5885" lon="2.60483">
        <ele>603.439</ele>
        <time>2013-06-21T12:18:00Z</time>
      </trkpt>
      <trkpt lat="44.58857" lon="2.60463">
        <ele>602.75</ele>
        <time>2013-06-21T12:18:22Z</time>
      </trkpt>
      <trkpt lat="44.58867" lon="2.60445">
        <ele>599.493</ele>
        <time>2013-06-21T12:18:40Z</time>
      </trkpt>
      <trkpt lat="44.58875" lon="2.60424">
        <ele>596.589</ele>
        <time>2013-06-21T12:19:01Z</time>
      </trkpt>
      <trkpt lat="44.58881" lon="2.60407">
        <ele>594.97</ele>
        <time>2013-06-21T12:19:17Z</time>
      </trkpt>
      <trkpt lat="44.58889" lon="2.60387">
        <ele>593.874</ele>
        <time>2013-06-21T12:19:36Z</time>
      </trkpt>
      <trkpt lat="44.58897" lon="2.60367">
        <ele>592.837</ele>
        <time>2013-06-21T12:19:53Z</time>
      </trkpt>
      <trkpt lat="44.58902" lon="2.60343">
        <ele>592.266</ele>
        <time>2013-06-21T12:20:10Z</time>
      </trkpt>
      <trkpt lat="44.58896" lon="2.60318">
        <ele>590.903</ele>
        <time>2013-06-21T12:20:27Z</time>
      </trkpt>
      <trkpt lat="44.58895" lon="2.60313">
        <ele>590.897</ele>
        <time>2013-06-21T12:20:31Z</time>
      </trkpt>
      <trkpt lat="44.58897" lon="2.60298">
        <ele>590.627</ele>
        <time>2013-06-21T12:20:46Z</time>
      </trkpt>
      <trkpt lat="44.58907" lon="2.60275">
        <ele>589.196</ele>
        <time>2013-06-21T12:21:04Z</time>
      </trkpt>
      <trkpt lat="44.5891" lon="2.60255">
        <ele>588.587</ele>
        <time>2013-06-21T12:21:17Z</time>
      </trkpt>
      <trkpt lat="44.58919" lon="2.60221">
        <ele>588.552</ele>
        <time>2013-06-21T12:21:38Z</time>
      </trkpt>
      <trkpt lat="44.58919" lon="2.60219">
        <ele>588.07</ele>
        <time>2013-06-21T12:21:39Z</time>
      </trkpt>
      <trkpt lat="44.58934" lon="2.60207">
        <ele>588.657</ele>
        <time>2013-06-21T12:22:01Z</time>
      </trkpt>
      <trkpt lat="44.58948" lon="2.60206">
        <ele>589.215</ele>
        <time>2013-06-21T12:22:17Z</time>
      </trkpt>
      <trkpt lat="44.58963" lon="2.60191">
        <ele>590.819</ele>
        <time>2013-06-21T12:22:36Z</time>
      </trkpt>
      <trkpt lat="44.58961" lon="2.60183">
        <ele>592.123</ele>
        <time>2013-06-21T12:22:50Z</time>
      </trkpt>
      <trkpt lat="44.5896" lon="2.60176">
        <ele>593.188</ele>
        <time>2013-06-21T12:23:09Z</time>
      </trkpt>
      <trkpt lat="44.58954" lon="2.60169">
        <ele>593.998</ele>
        <time>2013-06-21T12:23:23Z</time>
      </trkpt>
      <trkpt lat="44.58946" lon="2.60159">
        <ele>595.001</ele>
        <time>2013-06-21T12:23:41Z</time>
      </trkpt>
      <trkpt lat="44.58939" lon="2.60147">
        <ele>597.289</ele>
        <time>2013-06-21T12:23:57Z</time>
      </trkpt>
      <trkpt lat="44.58932" lon="2.6014">
        <ele>599.408</ele>
        <time>2013-06-21T12:24:16Z</time>
      </trkpt>
      <trkpt lat="44.58922" lon="2.60129">
        <ele>601.323</ele>
        <time>2013-06-21T12:24:35Z</time>
      </trkpt>
      <trkpt lat="44.58915" lon="2.60122">
        <ele>603.596</ele>
        <time>2013-06-21T12:24:51Z</time>
      </trkpt>
      <trkpt lat="44.58909" lon="2.6011">
        <ele>606.626</ele>
        <time>2013-06-21T12:25:07Z</time>
      </trkpt>
      <trkpt lat="44.58897" lon="2.60098">
        <ele>607.489</ele>
        <time>2013-06-21T12:25:24Z</time>
      </trkpt>
      <trkpt lat="44.58891" lon="2.60087">
        <ele>610.169</ele>
        <time>2013-06-21T12:25:42Z</time>
      </trkpt>
      <trkpt lat="44.58891" lon="2.60084">
        <ele>611.546</ele>
        <time>2013-06-21T12:26:02Z</time>
      </trkpt>
      <trkpt lat="44.589" lon="2.60082">
        <ele>612.982</ele>
        <time>2013-06-21T12:26:19Z</time>
      </trkpt>
      <trkpt lat="44.58908" lon="2.6008">
        <ele>613.579</ele>
        <time>2013-06-21T12:26:31Z</time>
      </trkpt>
      <trkpt lat="44.58922" lon="2.60077">
        <ele>614.691</ele>
        <time>2013-06-21T12:26:47Z</time>
      </trkpt>
      <trkpt lat="44.58933" lon="2.60066">
        <ele>615.081</ele>
        <time>2013-06-21T12:27:06Z</time>
      </trkpt>
      <trkpt lat="44.58937" lon="2.60056">
        <ele>613.766</ele>
        <time>2013-06-21T12:27:20Z</time>
      </trkpt>
      <trkpt lat="44.58937" lon="2.60043">
        <ele>612.32</ele>
        <time>2013-06-21T12:27:34Z</time>
      </trkpt>
      <trkpt lat="44.58936" lon="2.60029">
        <ele>612.067</ele>
        <time>2013-06-21T12:27:45Z</time>
      </trkpt>
      <trkpt lat="44.58938" lon="2.60017">
        <ele>610.572</ele>
        <time>2013-06-21T12:27:57Z</time>
      </trkpt>
      <trkpt lat="44.58937" lon="2.60007">
        <ele>609.727</ele>
        <time>2013-06-21T12:28:08Z</time>
      </trkpt>
      <trkpt lat="44.58948" lon="2.6">
        <ele>611.254</ele>
        <time>2013-06-21T12:29:01Z</time>
      </trkpt>
      <trkpt lat="44.58947" lon="2.60008">
        <ele>610.177</ele>
        <time>2013-06-21T12:29:33Z</time>
      </trkpt>
      <trkpt lat="44.58956" lon="2.6002">
        <ele>607.384</ele>
        <time>2013-06-21T12:29:50Z</time>
      </trkpt>
      <trkpt lat="44.5896" lon="2.60033">
        <ele>606.223</ele>
        <time>2013-06-21T12:30:03Z</time>
      </trkpt>
      <trkpt lat="44.58967" lon="2.60043">
        <ele>605.207</ele>
        <time>2013-06-21T12:30:15Z</time>
      </trkpt>
      <trkpt lat="44.58976" lon="2.60055">
        <ele>604.927</ele>
        <time>2013-06-21T12:30:29Z</time>
      </trkpt>
      <trkpt lat="44.58989" lon="2.60069">
        <ele>605.086</ele>
        <time>2013-06-21T12:30:44Z</time>
      </trkpt>
      <trkpt lat="44.58997" lon="2.60081">
        <ele>605.368</ele>
        <time>2013-06-21T12:30:56Z</time>
      </trkpt>
      <trkpt lat="44.59016" lon="2.60082">
        <ele>605.86</ele>
        <time>2013-06-21T12:31:13Z</time>
      </trkpt>
      <trkpt lat="44.59034" lon="2.60076">
        <ele>608.521</ele>
        <time>2013-06-21T12:31:32Z</time>
      </trkpt>
      <trkpt lat="44.59044" lon="2.60071">
        <ele>609.88</ele>
        <time>2013-06-21T12:31:49Z</time>
      </trkpt>
      <trkpt lat="44.59057" lon="2.60065">
        <ele>611.946</ele>
        <time>2013-06-21T12:32:07Z</time>
      </trkpt>
      <trkpt lat="44.59067" lon="2.60056">
        <ele>612.813</ele>
        <time>2013-06-21T12:32:22Z</time>
      </trkpt>
      <trkpt lat="44.5908" lon="2.60043">
        <ele>615.11</ele>
        <time>2013-06-21T12:32:43Z</time>
      </trkpt>
      <trkpt lat="44.59089" lon="2.60034">
        <ele>616.284</ele>
        <time>2013-06-21T12:32:57Z</time>
      </trkpt>
      <trkpt lat="44.59097" lon="2.60027">
        <ele>617.206</ele>
        <time>2013-06-21T12:33:10Z</time>
      </trkpt>
      <trkpt lat="44.59104" lon="2.6002">
        <ele>618.319</ele>
        <time>2013-06-21T12:33:23Z</time>
      </trkpt>
      <trkpt lat="44.59121" lon="2.60014">
        <ele>620.203</ele>
        <time>2013-06-21T12:33:40Z</time>
      </trkpt>
      <trkpt lat="44.59143" lon="2.60004">
        <ele>621.451</ele>
        <time>2013-06-21T12:34:01Z</time>
      </trkpt>
      <trkpt lat="44.59153" lon="2.59991">
        <ele>623.645</ele>
        <time>2013-06-21T12:34:18Z</time>
      </trkpt>
      <trkpt lat="44.5916" lon="2.59978">
        <ele>624.686</ele>
        <time>2013-06-21T12:34:35Z</time>
      </trkpt>
      <trkpt lat="44.59168" lon="2.59966">
        <ele>626.019</ele>
        <time>2013-06-21T12:34:51Z</time>
      </trkpt>
      <trkpt lat="44.59178" lon="2.59957">
        <ele>627.895</ele>
        <time>2013-06-21T12:35:07Z</time>
      </trkpt>
      <trkpt lat="44.59186" lon="2.59952">
        <ele>628.264</ele>
        <time>2013-06-21T12:35:18Z</time>
      </trkpt>
      <trkpt lat="44.592" lon="2.59943">
        <ele>629.93</ele>
        <time>2013-06-21T12:35:35Z</time>
      </trkpt>
      <trkpt lat="44.59207" lon="2.59938">
        <ele>631.87</ele>
        <time>2013-06-21T12:35:47Z</time>
      </trkpt>
      <trkpt lat="44.59223" lon="2.59924">
        <ele>632.735</ele>
        <time>2013-06-21T12:36:04Z</time>
      </trkpt>
      <trkpt lat="44.59236" lon="2.59919">
        <ele>633.049</ele>
        <time>2013-06-21T12:36:19Z</time>
      </trkpt>
      <trkpt lat="44.59244" lon="2.59913">
        <ele>632.992</ele>
        <time>2013-06-21T12:36:32Z</time>
      </trkpt>
      <trkpt lat="44.59253" lon="2.59899">
        <ele>634.132</ele>
        <time>2013-06-21T12:36:46Z</time>
      </trkpt>
      <trkpt lat="44.59261" lon="2.5988">
        <ele>634.967</ele>
        <time>2013-06-21T12:37:04Z</time>
      </trkpt>
      <trkpt lat="44.59271" lon="2.59863">
        <ele>635.142</ele>
        <time>2013-06-21T12:37:20Z</time>
      </trkpt>
      <trkpt lat="44.59277" lon="2.59846">
        <ele>636.727</ele>
        <time>2013-06-21T12:37:34Z</time>
      </trkpt>
      <trkpt lat="44.59282" lon="2.59831">
        <ele>636.875</ele>
        <time>2013-06-21T12:37:46Z</time>
      </trkpt>
      <trkpt lat="44.59287" lon="2.59814">
        <ele>639.033</ele>
        <time>2013-06-21T12:38:01Z</time>
      </trkpt>
      <trkpt lat="44.59294" lon="2.59794">
        <ele>639.326</ele>
        <time>2013-06-21T12:38:16Z</time>
      </trkpt>
      <trkpt lat="44.59293" lon="2.59783">
        <ele>640.566</ele>
        <time>2013-06-21T12:38:29Z</time>
      </trkpt>
      <trkpt lat="44.59303" lon="2.59771">
        <ele>641.386</ele>
        <time>2013-06-21T12:38:44Z</time>
      </trkpt>
      <trkpt lat="44.5931" lon="2.59762">
        <ele>642.978</ele>
        <time>2013-06-21T12:38:58Z</time>
      </trkpt>
      <trkpt lat="44.59324" lon="2.59747">
        <ele>644.388</ele>
        <time>2013-06-21T12:39:16Z</time>
      </trkpt>
      <trkpt lat="44.59329" lon="2.59746">
        <ele>646.637</ele>
        <time>2013-06-21T12:39:28Z</time>
      </trkpt>
      <trkpt lat="44.59339" lon="2.5975">
        <ele>645.344</ele>
        <time>2013-06-21T12:39:41Z</time>
      </trkpt>
      <trkpt lat="44.59359" lon="2.59755">
        <ele>643.599</ele>
        <time>2013-06-21T12:40:02Z</time>
      </trkpt>
      <trkpt lat="44.59376" lon="2.59767">
        <ele>642.626</ele>
        <time>2013-06-21T12:40:24Z</time>
      </trkpt>
      <trkpt lat="44.59377" lon="2.59768">
        <ele>642.771</ele>
        <time>2013-06-21T12:41:10Z</time>
      </trkpt>
      <trkpt lat="44.59377" lon="2.59767">
        <ele>642.146</ele>
        <time>2013-06-21T12:41:49Z</time>
      </trkpt>
      <trkpt lat="44.59401" lon="2.5978">
        <ele>639.597</ele>
        <time>2013-06-21T12:42:10Z</time>
      </trkpt>
      <trkpt lat="44.59429" lon="2.59789">
        <ele>637.211</ele>
        <time>2013-06-21T12:42:36Z</time>
      </trkpt>
      <trkpt lat="44.59445" lon="2.59774">
        <ele>638.883</ele>
        <time>2013-06-21T12:42:59Z</time>
      </trkpt>
      <trkpt lat="44.5946" lon="2.59757">
        <ele>642.133</ele>
        <time>2013-06-21T12:43:22Z</time>
      </trkpt>
      <trkpt lat="44.59468" lon="2.59724">
        <ele>643.222</ele>
        <time>2013-06-21T12:43:49Z</time>
      </trkpt>
      <trkpt lat="44.59468" lon="2.59719">
        <ele>643.89</ele>
        <time>2013-06-21T12:43:57Z</time>
      </trkpt>
      <trkpt lat="44.59465" lon="2.59688">
        <ele>643.048</ele>
        <time>2013-06-21T12:44:19Z</time>
      </trkpt>
      <trkpt lat="44.59464" lon="2.59678">
        <ele>642.52</ele>
        <time>2013-06-21T12:44:26Z</time>
      </trkpt>
      <trkpt lat="44.59459" lon="2.59655">
        <ele>643.518</ele>
        <time>2013-06-21T12:44:43Z</time>
      </trkpt>
      <trkpt lat="44.59458" lon="2.59631">
        <ele>643.384</ele>
        <time>2013-06-21T12:45:02Z</time>
      </trkpt>
      <trkpt lat="44.59461" lon="2.59605">
        <ele>645.146</ele>
        <time>2013-06-21T12:45:22Z</time>
      </trkpt>
      <trkpt lat="44.5946" lon="2.59579">
        <ele>646.208</ele>
        <time>2013-06-21T12:45:41Z</time>
      </trkpt>
      <trkpt lat="44.59451" lon="2.59543">
        <ele>644.424</ele>
        <time>2013-06-21T12:46:04Z</time>
      </trkpt>
      <trkpt lat="44.59447" lon="2.59519">
        <ele>643.232</ele>
        <time>2013-06-21T12:46:22Z</time>
      </trkpt>
      <trkpt lat="44.59443" lon="2.59488">
        <ele>642.052</ele>
        <time>2013-06-21T12:46:43Z</time>
      </trkpt>
      <trkpt lat="44.59439" lon="2.59469">
        <ele>641.426</ele>
        <time>2013-06-21T12:47:02Z</time>
      </trkpt>
      <trkpt lat="44.59424" lon="2.5945">
        <ele>640.082</ele>
        <time>2013-06-21T12:47:21Z</time>
      </trkpt>
      <trkpt lat="44.59408" lon="2.59443">
        <ele>638.792</ele>
        <time>2013-06-21T12:47:38Z</time>
      </trkpt>
      <trkpt lat="44.59394" lon="2.59442">
        <ele>637.467</ele>
        <time>2013-06-21T12:47:56Z</time>
      </trkpt>
      <trkpt lat="44.59381" lon="2.59436">
        <ele>637.604</ele>
        <time>2013-06-21T12:48:11Z</time>
      </trkpt>
      <trkpt lat="44.59368" lon="2.59431">
        <ele>636.631</ele>
        <time>2013-06-21T12:48:25Z</time>
      </trkpt>
      <trkpt lat="44.59351" lon="2.59426">
        <ele>636.449</ele>
        <time>2013-06-21T12:48:41Z</time>
      </trkpt>
      <trkpt lat="44.59338" lon="2.59421">
        <ele>636.827</ele>
        <time>2013-06-21T12:48:56Z</time>
      </trkpt>
      <trkpt lat="44.59334" lon="2.59418">
        <ele>636.608</ele>
        <time>2013-06-21T12:48:59Z</time>
      </trkpt>
      <trkpt lat="44.59316" lon="2.59403">
        <ele>636.379</ele>
        <time>2013-06-21T12:49:16Z</time>
      </trkpt>
      <trkpt lat="44.59302" lon="2.59384">
        <ele>636.144</ele>
        <time>2013-06-21T12:49:32Z</time>
      </trkpt>
      <trkpt lat="44.59295" lon="2.59371">
        <ele>636.835</ele>
        <time>2013-06-21T12:49:42Z</time>
      </trkpt>
      <trkpt lat="44.59294" lon="2.59366">
        <ele>636.495</ele>
        <time>2013-06-21T12:49:46Z</time>
      </trkpt>
      <trkpt lat="44.59287" lon="2.59346">
        <ele>636.576</ele>
        <time>2013-06-21T12:50:00Z</time>
      </trkpt>
      <trkpt lat="44.59288" lon="2.59345">
        <ele>637.009</ele>
        <time>2013-06-21T12:50:01Z</time>
      </trkpt>
      <trkpt lat="44.59295" lon="2.59331">
        <ele>637.338</ele>
        <time>2013-06-21T12:50:16Z</time>
      </trkpt>
      <trkpt lat="44.59295" lon="2.59314">
        <ele>637.332</ele>
        <time>2013-06-21T12:50:30Z</time>
      </trkpt>
      <trkpt lat="44.59296" lon="2.59295">
        <ele>638.286</ele>
        <time>2013-06-21T12:50:45Z</time>
      </trkpt>
      <trkpt lat="44.59299" lon="2.59277">
        <ele>639.034</ele>
        <time>2013-06-21T12:50:57Z</time>
      </trkpt>
      <trkpt lat="44.59299" lon="2.5926">
        <ele>639.452</ele>
        <time>2013-06-21T12:51:08Z</time>
      </trkpt>
      <trkpt lat="44.59302" lon="2.5924">
        <ele>640.743</ele>
        <time>2013-06-21T12:51:21Z</time>
      </trkpt>
      <trkpt lat="44.59303" lon="2.59223">
        <ele>642.134</ele>
        <time>2013-06-21T12:51:36Z</time>
      </trkpt>
      <trkpt lat="44.59306" lon="2.59205">
        <ele>643.882</ele>
        <time>2013-06-21T12:51:51Z</time>
      </trkpt>
      <trkpt lat="44.5931" lon="2.59191">
        <ele>645.028</ele>
        <time>2013-06-21T12:52:03Z</time>
      </trkpt>
      <trkpt lat="44.59314" lon="2.5917">
        <ele>645.541</ele>
        <time>2013-06-21T12:52:19Z</time>
      </trkpt>
      <trkpt lat="44.59318" lon="2.59146">
        <ele>645.667</ele>
        <time>2013-06-21T12:52:33Z</time>
      </trkpt>
      <trkpt lat="44.59328" lon="2.59132">
        <ele>646.18</ele>
        <time>2013-06-21T12:52:49Z</time>
      </trkpt>
      <trkpt lat="44.59349" lon="2.59118">
        <ele>645.186</ele>
        <time>2013-06-21T12:53:14Z</time>
      </trkpt>
      <trkpt lat="44.59365" lon="2.59103">
        <ele>647.066</ele>
        <time>2013-06-21T12:53:37Z</time>
      </trkpt>
      <trkpt lat="44.59375" lon="2.59101">
        <ele>645.902</ele>
        <time>2013-06-21T12:53:53Z</time>
      </trkpt>
      <trkpt lat="44.59388" lon="2.59105">
        <ele>645.466</ele>
        <time>2013-06-21T12:54:11Z</time>
      </trkpt>
      <trkpt lat="44.59393" lon="2.59103">
        <ele>645.483</ele>
        <time>2013-06-21T12:54:30Z</time>
      </trkpt>
      <trkpt lat="44.59395" lon="2.59101">
        <ele>645.32</ele>
        <time>2013-06-21T12:55:19Z</time>
      </trkpt>
      <trkpt lat="44.59402" lon="2.591">
        <ele>646.74</ele>
        <time>2013-06-21T12:56:30Z</time>
      </trkpt>
      <trkpt lat="44.59405" lon="2.59085">
        <ele>650.424</ele>
        <time>2013-06-21T12:56:47Z</time>
      </trkpt>
      <trkpt lat="44.59403" lon="2.59075">
        <ele>650.628</ele>
        <time>2013-06-21T12:57:00Z</time>
      </trkpt>
      <trkpt lat="44.59402" lon="2.5906">
        <ele>652.896</ele>
        <time>2013-06-21T12:57:18Z</time>
      </trkpt>
      <trkpt lat="44.59399" lon="2.59049">
        <ele>653.979</ele>
        <time>2013-06-21T12:57:34Z</time>
      </trkpt>
      <trkpt lat="44.59396" lon="2.59037">
        <ele>655.574</ele>
        <time>2013-06-21T12:57:59Z</time>
      </trkpt>
      <trkpt lat="44.59391" lon="2.59023">
        <ele>657.795</ele>
        <time>2013-06-21T12:58:18Z</time>
      </trkpt>
      <trkpt lat="44.59393" lon="2.5901">
        <ele>660.159</ele>
        <time>2013-06-21T12:58:37Z</time>
      </trkpt>
      <trkpt lat="44.59396" lon="2.59009">
        <ele>659.046</ele>
        <time>2013-06-21T12:58:55Z</time>
      </trkpt>
      <trkpt lat="44.59392" lon="2.5902">
        <ele>656.943</ele>
        <time>2013-06-21T12:59:12Z</time>
      </trkpt>
      <trkpt lat="44.59395" lon="2.5903">
        <ele>655.496</ele>
        <time>2013-06-21T12:59:27Z</time>
      </trkpt>
      <trkpt lat="44.59395" lon="2.59038">
        <ele>655.122</ele>
        <time>2013-06-21T12:59:47Z</time>
      </trkpt>
      <trkpt lat="44.59396" lon="2.59045">
        <ele>652.924</ele>
        <time>2013-06-21T13:00:11Z</time>
      </trkpt>
      <trkpt lat="44.594" lon="2.5906">
        <ele>651.405</ele>
        <time>2013-06-21T13:00:29Z</time>
      </trkpt>
      <trkpt lat="44.59402" lon="2.59077">
        <ele>648.457</ele>
        <time>2013-06-21T13:00:45Z</time>
      </trkpt>
      <trkpt lat="44.59401" lon="2.59092">
        <ele>646.646</ele>
        <time>2013-06-21T13:01:01Z</time>
      </trkpt>
      <trkpt lat="44.59387" lon="2.59103">
        <ele>646.807</ele>
        <time>2013-06-21T13:01:18Z</time>
      </trkpt>
      <trkpt lat="44.59373" lon="2.59107">
        <ele>647.109</ele>
        <time>2013-06-21T13:01:35Z</time>
      </trkpt>
      <trkpt lat="44.59367" lon="2.59109">
        <ele>647.083</ele>
        <time>2013-06-21T13:02:04Z</time>
      </trkpt>
      <trkpt lat="44.59367" lon="2.5911">
        <ele>647.211</ele>
        <time>2013-06-21T13:02:33Z</time>
      </trkpt>
      <trkpt lat="44.59366" lon="2.59108">
        <ele>644.901</ele>
        <time>2013-06-21T13:02:44Z</time>
      </trkpt>
      <trkpt lat="44.59361" lon="2.59103">
        <ele>645.773</ele>
        <time>2013-06-21T13:04:54Z</time>
      </trkpt>
      <trkpt lat="44.59363" lon="2.59104">
        <ele>647.829</ele>
        <time>2013-06-21T13:09:30Z</time>
      </trkpt>
      <trkpt lat="44.59367" lon="2.59106">
        <ele>647.584</ele>
        <time>2013-06-21T13:10:45Z</time>
      </trkpt>
      <trkpt lat="44.59366" lon="2.59106">
        <ele>648.288</ele>
        <time>2013-06-21T13:14:01Z</time>
      </trkpt>
      <trkpt lat="44.59363" lon="2.59107">
        <ele>648.416</ele>
        <time>2013-06-21T13:15:44Z</time>
      </trkpt>
      <trkpt lat="44.59364" lon="2.59107">
        <ele>648.491</ele>
        <time>2013-06-21T13:16:59Z</time>
      </trkpt>
      <trkpt lat="44.59366" lon="2.5911">
        <ele>648.72</ele>
        <time>2013-06-21T13:18:17Z</time>
      </trkpt>
      <trkpt lat="44.59364" lon="2.5911">
        <ele>649.368</ele>
        <time>2013-06-21T13:18:48Z</time>
      </trkpt>
      <trkpt lat="44.59365" lon="2.5911">
        <ele>650.162</ele>
        <time>2013-06-21T13:19:12Z</time>
      </trkpt>
      <trkpt lat="44.59367" lon="2.59109">
        <ele>650.233</ele>
        <time>2013-06-21T13:19:26Z</time>
      </trkpt>
      <trkpt lat="44.59369" lon="2.59108">
        <ele>649.828</ele>
        <time>2013-06-21T13:19:28Z</time>
      </trkpt>
      <trkpt lat="44.59384" lon="2.59102">
        <ele>648.253</ele>
        <time>2013-06-21T13:19:44Z</time>
      </trkpt>
      <trkpt lat="44.59396" lon="2.59099">
        <ele>649.182</ele>
        <time>2013-06-21T13:20:03Z</time>
      </trkpt>
      <trkpt lat="44.594" lon="2.59087">
        <ele>651.906</ele>
        <time>2013-06-21T13:20:20Z</time>
      </trkpt>
      <trkpt lat="44.594" lon="2.59075">
        <ele>652.456</ele>
        <time>2013-06-21T13:20:37Z</time>
      </trkpt>
      <trkpt lat="44.59401" lon="2.5906">
        <ele>655.048</ele>
        <time>2013-06-21T13:20:52Z</time>
      </trkpt>
      <trkpt lat="44.59399" lon="2.59045">
        <ele>656.794</ele>
        <time>2013-06-21T13:21:12Z</time>
      </trkpt>
      <trkpt lat="44.59393" lon="2.59033">
        <ele>657.943</ele>
        <time>2013-06-21T13:21:40Z</time>
      </trkpt>
      <trkpt lat="44.59392" lon="2.59031">
        <ele>659.235</ele>
        <time>2013-06-21T13:21:43Z</time>
      </trkpt>
      <trkpt lat="44.5939" lon="2.59018">
        <ele>660.825</ele>
        <time>2013-06-21T13:22:00Z</time>
      </trkpt>
      <trkpt lat="44.59393" lon="2.59009">
        <ele>662.229</ele>
        <time>2013-06-21T13:22:15Z</time>
      </trkpt>
      <trkpt lat="44.59397" lon="2.58994">
        <ele>662.49</ele>
        <time>2013-06-21T13:22:29Z</time>
      </trkpt>
      <trkpt lat="44.59402" lon="2.58976">
        <ele>663.904</ele>
        <time>2013-06-21T13:22:43Z</time>
      </trkpt>
      <trkpt lat="44.59409" lon="2.58961">
        <ele>664.074</ele>
        <time>2013-06-21T13:22:56Z</time>
      </trkpt>
      <trkpt lat="44.59412" lon="2.58948">
        <ele>663.808</ele>
        <time>2013-06-21T13:23:09Z</time>
      </trkpt>
      <trkpt lat="44.59414" lon="2.58934">
        <ele>664.327</ele>
        <time>2013-06-21T13:23:23Z</time>
      </trkpt>
      <trkpt lat="44.59417" lon="2.58914">
        <ele>664.422</ele>
        <time>2013-06-21T13:23:39Z</time>
      </trkpt>
      <trkpt lat="44.5942" lon="2.58897">
        <ele>664.453</ele>
        <time>2013-06-21T13:23:53Z</time>
      </trkpt>
      <trkpt lat="44.59429" lon="2.5888">
        <ele>664.277</ele>
        <time>2013-06-21T13:24:10Z</time>
      </trkpt>
      <trkpt lat="44.59441" lon="2.5887">
        <ele>663.263</ele>
        <time>2013-06-21T13:24:26Z</time>
      </trkpt>
      <trkpt lat="44.59443" lon="2.58859">
        <ele>662.747</ele>
        <time>2013-06-21T13:24:40Z</time>
      </trkpt>
      <trkpt lat="44.59448" lon="2.58847">
        <ele>659.948</ele>
        <time>2013-06-21T13:24:57Z</time>
      </trkpt>
      <trkpt lat="44.59449" lon="2.58847">
        <ele>658.622</ele>
        <time>2013-06-21T13:25:17Z</time>
      </trkpt>
      <trkpt lat="44.5945" lon="2.58841">
        <ele>659.184</ele>
        <time>2013-06-21T13:25:55Z</time>
      </trkpt>
      <trkpt lat="44.59452" lon="2.58844">
        <ele>656.183</ele>
        <time>2013-06-21T13:26:15Z</time>
      </trkpt>
      <trkpt lat="44.59463" lon="2.58844">
        <ele>653.558</ele>
        <time>2013-06-21T13:26:33Z</time>
      </trkpt>
      <trkpt lat="44.59464" lon="2.58846">
        <ele>652.863</ele>
        <time>2013-06-21T13:26:50Z</time>
      </trkpt>
      <trkpt lat="44.59466" lon="2.58846">
        <ele>652.667</ele>
        <time>2013-06-21T13:27:09Z</time>
      </trkpt>
      <trkpt lat="44.59469" lon="2.58843">
        <ele>651.108</ele>
        <time>2013-06-21T13:27:27Z</time>
      </trkpt>
      <trkpt lat="44.5947" lon="2.58839">
        <ele>648.554</ele>
        <time>2013-06-21T13:27:43Z</time>
      </trkpt>
      <trkpt lat="44.59472" lon="2.58829">
        <ele>645.167</ele>
        <time>2013-06-21T13:27:56Z</time>
      </trkpt>
      <trkpt lat="44.59479" lon="2.58824">
        <ele>643.077</ele>
        <time>2013-06-21T13:28:14Z</time>
      </trkpt>
      <trkpt lat="44.59486" lon="2.58819">
        <ele>642.256</ele>
        <time>2013-06-21T13:28:26Z</time>
      </trkpt>
      <trkpt lat="44.59491" lon="2.58819">
        <ele>640.169</ele>
        <time>2013-06-21T13:28:40Z</time>
      </trkpt>
      <trkpt lat="44.59494" lon="2.58814">
        <ele>637.596</ele>
        <time>2013-06-21T13:28:56Z</time>
      </trkpt>
      <trkpt lat="44.59492" lon="2.58801">
        <ele>635.83</ele>
        <time>2013-06-21T13:29:12Z</time>
      </trkpt>
      <trkpt lat="44.59489" lon="2.58786">
        <ele>635.067</ele>
        <time>2013-06-21T13:29:25Z</time>
      </trkpt>
      <trkpt lat="44.59484" lon="2.58772">
        <ele>634.758</ele>
        <time>2013-06-21T13:29:43Z</time>
      </trkpt>
      <trkpt lat="44.59479" lon="2.58768">
        <ele>635.066</ele>
        <time>2013-06-21T13:29:47Z</time>
      </trkpt>
      <trkpt lat="44.59466" lon="2.58743">
        <ele>635.725</ele>
        <time>2013-06-21T13:30:09Z</time>
      </trkpt>
      <trkpt lat="44.59469" lon="2.58735">
        <ele>635.831</ele>
        <time>2013-06-21T13:30:26Z</time>
      </trkpt>
      <trkpt lat="44.59469" lon="2.5871">
        <ele>637.172</ele>
        <time>2013-06-21T13:30:47Z</time>
      </trkpt>
      <trkpt lat="44.59472" lon="2.5869">
        <ele>638.879</ele>
        <time>2013-06-21T13:31:06Z</time>
      </trkpt>
      <trkpt lat="44.59474" lon="2.58673">
        <ele>640.747</ele>
        <time>2013-06-21T13:31:21Z</time>
      </trkpt>
      <trkpt lat="44.59481" lon="2.58655">
        <ele>641.048</ele>
        <time>2013-06-21T13:31:37Z</time>
      </trkpt>
      <trkpt lat="44.59489" lon="2.58648">
        <ele>640.958</ele>
        <time>2013-06-21T13:31:51Z</time>
      </trkpt>
      <trkpt lat="44.59501" lon="2.58643">
        <ele>640.699</ele>
        <time>2013-06-21T13:32:09Z</time>
      </trkpt>
      <trkpt lat="44.59513" lon="2.58632">
        <ele>641.032</ele>
        <time>2013-06-21T13:32:27Z</time>
      </trkpt>
      <trkpt lat="44.59526" lon="2.58618">
        <ele>642.766</ele>
        <time>2013-06-21T13:32:45Z</time>
      </trkpt>
      <trkpt lat="44.59536" lon="2.58605">
        <ele>643.108</ele>
        <time>2013-06-21T13:33:02Z</time>
      </trkpt>
      <trkpt lat="44.59549" lon="2.58584">
        <ele>644.249</ele>
        <time>2013-06-21T13:33:21Z</time>
      </trkpt>
      <trkpt lat="44.5956" lon="2.58574">
        <ele>643.456</ele>
        <time>2013-06-21T13:33:38Z</time>
      </trkpt>
      <trkpt lat="44.59572" lon="2.58563">
        <ele>642.126</ele>
        <time>2013-06-21T13:33:54Z</time>
      </trkpt>
      <trkpt lat="44.59586" lon="2.58549">
        <ele>642.255</ele>
        <time>2013-06-21T13:34:12Z</time>
      </trkpt>
      <trkpt lat="44.596" lon="2.58541">
        <ele>641.105</ele>
        <time>2013-06-21T13:34:29Z</time>
      </trkpt>
      <trkpt lat="44.59611" lon="2.58537">
        <ele>639.304</ele>
        <time>2013-06-21T13:34:44Z</time>
      </trkpt>
      <trkpt lat="44.59628" lon="2.58528">
        <ele>636.951</ele>
        <time>2013-06-21T13:35:04Z</time>
      </trkpt>
      <trkpt lat="44.59636" lon="2.5852">
        <ele>635.701</ele>
        <time>2013-06-21T13:35:20Z</time>
      </trkpt>
      <trkpt lat="44.59639" lon="2.58511">
        <ele>635.721</ele>
        <time>2013-06-21T13:35:32Z</time>
      </trkpt>
      <trkpt lat="44.5965" lon="2.58488">
        <ele>635.04</ele>
        <time>2013-06-21T13:35:48Z</time>
      </trkpt>
      <trkpt lat="44.59659" lon="2.58474">
        <ele>634.296</ele>
        <time>2013-06-21T13:36:00Z</time>
      </trkpt>
      <trkpt lat="44.59674" lon="2.58451">
        <ele>633.969</ele>
        <time>2013-06-21T13:36:19Z</time>
      </trkpt>
      <trkpt lat="44.59692" lon="2.58439">
        <ele>634.163</ele>
        <time>2013-06-21T13:36:40Z</time>
      </trkpt>
      <trkpt lat="44.59704" lon="2.58435">
        <ele>635.933</ele>
        <time>2013-06-21T13:36:57Z</time>
      </trkpt>
      <trkpt lat="44.5972" lon="2.58431">
        <ele>636.937</ele>
        <time>2013-06-21T13:37:17Z</time>
      </trkpt>
      <trkpt lat="44.59732" lon="2.58429">
        <ele>638.257</ele>
        <time>2013-06-21T13:37:33Z</time>
      </trkpt>
      <trkpt lat="44.59749" lon="2.58425">
        <ele>639.772</ele>
        <time>2013-06-21T13:37:53Z</time>
      </trkpt>
      <trkpt lat="44.59763" lon="2.58419">
        <ele>641.414</ele>
        <time>2013-06-21T13:38:11Z</time>
      </trkpt>
      <trkpt lat="44.59774" lon="2.58411">
        <ele>640.044</ele>
        <time>2013-06-21T13:38:27Z</time>
      </trkpt>
      <trkpt lat="44.59791" lon="2.58401">
        <ele>640.245</ele>
        <time>2013-06-21T13:38:46Z</time>
      </trkpt>
      <trkpt lat="44.59806" lon="2.58397">
        <ele>640.317</ele>
        <time>2013-06-21T13:39:02Z</time>
      </trkpt>
      <trkpt lat="44.59827" lon="2.58393">
        <ele>641.526</ele>
        <time>2013-06-21T13:39:24Z</time>
      </trkpt>
      <trkpt lat="44.59841" lon="2.58381">
        <ele>642.082</ele>
        <time>2013-06-21T13:39:44Z</time>
      </trkpt>
      <trkpt lat="44.59855" lon="2.58367">
        <ele>642.249</ele>
        <time>2013-06-21T13:40:02Z</time>
      </trkpt>
      <trkpt lat="44.59867" lon="2.58348">
        <ele>642.185</ele>
        <time>2013-06-21T13:40:24Z</time>
      </trkpt>
      <trkpt lat="44.59878" lon="2.58337">
        <ele>642.023</ele>
        <time>2013-06-21T13:40:39Z</time>
      </trkpt>
      <trkpt lat="44.59882" lon="2.58336">
        <ele>640.95</ele>
        <time>2013-06-21T13:40:43Z</time>
      </trkpt>
      <trkpt lat="44.59891" lon="2.58337">
        <ele>640.482</ele>
        <time>2013-06-21T13:40:57Z</time>
      </trkpt>
      <trkpt lat="44.59902" lon="2.58342">
        <ele>640.456</ele>
        <time>2013-06-21T13:41:11Z</time>
      </trkpt>
      <trkpt lat="44.59916" lon="2.58356">
        <ele>639.772</ele>
        <time>2013-06-21T13:41:28Z</time>
      </trkpt>
      <trkpt lat="44.59928" lon="2.58375">
        <ele>639.741</ele>
        <time>2013-06-21T13:41:45Z</time>
      </trkpt>
      <trkpt lat="44.59939" lon="2.58394">
        <ele>639.996</ele>
        <time>2013-06-21T13:42:02Z</time>
      </trkpt>
      <trkpt lat="44.59956" lon="2.5841">
        <ele>640.949</ele>
        <time>2013-06-21T13:42:22Z</time>
      </trkpt>
      <trkpt lat="44.5997" lon="2.58411">
        <ele>643.276</ele>
        <time>2013-06-21T13:42:41Z</time>
      </trkpt>
      <trkpt lat="44.59977" lon="2.58409">
        <ele>643.844</ele>
        <time>2013-06-21T13:42:58Z</time>
      </trkpt>
      <trkpt lat="44.59978" lon="2.58409">
        <ele>643.766</ele>
        <time>2013-06-21T13:43:24Z</time>
      </trkpt>
      <trkpt lat="44.59979" lon="2.58416">
        <ele>644.22</ele>
        <time>2013-06-21T13:44:16Z</time>
      </trkpt>
      <trkpt lat="44.59982" lon="2.58415">
        <ele>644.486</ele>
        <time>2013-06-21T13:44:43Z</time>
      </trkpt>
      <trkpt lat="44.5998" lon="2.58406">
        <ele>644.427</ele>
        <time>2013-06-21T13:45:30Z</time>
      </trkpt>
      <trkpt lat="44.59983" lon="2.58405">
        <ele>644.41</ele>
        <time>2013-06-21T13:46:17Z</time>
      </trkpt>
      <trkpt lat="44.59986" lon="2.58393">
        <ele>645.149</ele>
        <time>2013-06-21T13:46:41Z</time>
      </trkpt>
      <trkpt lat="44.59991" lon="2.5838">
        <ele>647.164</ele>
        <time>2013-06-21T13:46:56Z</time>
      </trkpt>
      <trkpt lat="44.60002" lon="2.58357">
        <ele>648.614</ele>
        <time>2013-06-21T13:47:17Z</time>
      </trkpt>
      <trkpt lat="44.60016" lon="2.58348">
        <ele>649.36</ele>
        <time>2013-06-21T13:47:35Z</time>
      </trkpt>
      <trkpt lat="44.6002" lon="2.5834">
        <ele>649.132</ele>
        <time>2013-06-21T13:47:51Z</time>
      </trkpt>
      <trkpt lat="44.60023" lon="2.58334">
        <ele>649.733</ele>
        <time>2013-06-21T13:48:21Z</time>
      </trkpt>
      <trkpt lat="44.60022" lon="2.58346">
        <ele>649.496</ele>
        <time>2013-06-21T13:48:33Z</time>
      </trkpt>
      <trkpt lat="44.60024" lon="2.58351">
        <ele>649.125</ele>
        <time>2013-06-21T13:48:46Z</time>
      </trkpt>
      <trkpt lat="44.60021" lon="2.5834">
        <ele>649.934</ele>
        <time>2013-06-21T13:49:06Z</time>
      </trkpt>
      <trkpt lat="44.60022" lon="2.58337">
        <ele>649.389</ele>
        <time>2013-06-21T13:49:26Z</time>
      </trkpt>
      <trkpt lat="44.60044" lon="2.58335">
        <ele>649.168</ele>
        <time>2013-06-21T13:49:48Z</time>
      </trkpt>
      <trkpt lat="44.60067" lon="2.5833">
        <ele>648.704</ele>
        <time>2013-06-21T13:50:08Z</time>
      </trkpt>
      <trkpt lat="44.60089" lon="2.58322">
        <ele>648.116</ele>
        <time>2013-06-21T13:50:28Z</time>
      </trkpt>
      <trkpt lat="44.60113" lon="2.58317">
        <ele>647.891</ele>
        <time>2013-06-21T13:50:48Z</time>
      </trkpt>
      <trkpt lat="44.60145" lon="2.58321">
        <ele>648.063</ele>
        <time>2013-06-21T13:51:18Z</time>
      </trkpt>
      <trkpt lat="44.60173" lon="2.58332">
        <ele>648.531</ele>
        <time>2013-06-21T13:51:46Z</time>
      </trkpt>
      <trkpt lat="44.60194" lon="2.58361">
        <ele>649.645</ele>
        <time>2013-06-21T13:52:14Z</time>
      </trkpt>
      <trkpt lat="44.60207" lon="2.58388">
        <ele>650.269</ele>
        <time>2013-06-21T13:52:39Z</time>
      </trkpt>
      <trkpt lat="44.60223" lon="2.58416">
        <ele>651.655</ele>
        <time>2013-06-21T13:53:05Z</time>
      </trkpt>
      <trkpt lat="44.6024" lon="2.58443">
        <ele>654.679</ele>
        <time>2013-06-21T13:53:32Z</time>
      </trkpt>
      <trkpt lat="44.6026" lon="2.58452">
        <ele>656.156</ele>
        <time>2013-06-21T13:53:57Z</time>
      </trkpt>
      <trkpt lat="44.60269" lon="2.58455">
        <ele>656.014</ele>
        <time>2013-06-21T13:54:18Z</time>
      </trkpt>
      <trkpt lat="44.60274" lon="2.58456">
        <ele>656.297</ele>
        <time>2013-06-21T13:54:30Z</time>
      </trkpt>
      <trkpt lat="44.603" lon="2.58452">
        <ele>656.23</ele>
        <time>2013-06-21T13:54:58Z</time>
      </trkpt>
      <trkpt lat="44.60317" lon="2.5845">
        <ele>655.983</ele>
        <time>2013-06-21T13:55:29Z</time>
      </trkpt>
      <trkpt lat="44.60329" lon="2.58447">
        <ele>656.656</ele>
        <time>2013-06-21T13:55:47Z</time>
      </trkpt>
      <trkpt lat="44.60334" lon="2.58446">
        <ele>656.907</ele>
        <time>2013-06-21T13:55:52Z</time>
      </trkpt>
      <trkpt lat="44.60361" lon="2.58439">
        <ele>656.866</ele>
        <time>2013-06-21T13:56:19Z</time>
      </trkpt>
      <trkpt lat="44.60387" lon="2.58424">
        <ele>656.067</ele>
        <time>2013-06-21T13:56:49Z</time>
      </trkpt>
      <trkpt lat="44.60394" lon="2.58414">
        <ele>654.263</ele>
        <time>2013-06-21T13:57:15Z</time>
      </trkpt>
      <trkpt lat="44.60395" lon="2.58413">
        <ele>655.268</ele>
        <time>2013-06-21T13:57:41Z</time>
      </trkpt>
      <trkpt lat="44.60399" lon="2.58407">
        <ele>656.413</ele>
        <time>2013-06-21T13:58:03Z</time>
      </trkpt>
      <trkpt lat="44.60402" lon="2.58405">
        <ele>656.316</ele>
        <time>2013-06-21T13:58:21Z</time>
      </trkpt>
      <trkpt lat="44.60394" lon="2.58415">
        <ele>655.157</ele>
        <time>2013-06-21T13:58:36Z</time>
      </trkpt>
      <trkpt lat="44.6041" lon="2.58402">
        <ele>651.901</ele>
        <time>2013-06-21T13:58:54Z</time>
      </trkpt>
      <trkpt lat="44.60433" lon="2.58387">
        <ele>651.323</ele>
        <time>2013-06-21T13:59:18Z</time>
      </trkpt>
      <trkpt lat="44.6044" lon="2.5838">
        <ele>650.764</ele>
        <time>2013-06-21T13:59:29Z</time>
      </trkpt>
      <trkpt lat="44.6046" lon="2.58359">
        <ele>651.113</ele>
        <time>2013-06-21T13:59:50Z</time>
      </trkpt>
      <trkpt lat="44.60484" lon="2.58338">
        <ele>650.809</ele>
        <time>2013-06-21T14:00:15Z</time>
      </trkpt>
      <trkpt lat="44.60488" lon="2.58347">
        <ele>650.791</ele>
        <time>2013-06-21T14:00:39Z</time>
      </trkpt>
      <trkpt lat="44.60485" lon="2.58344">
        <ele>651.262</ele>
        <time>2013-06-21T14:01:03Z</time>
      </trkpt>
      <trkpt lat="44.60481" lon="2.58349">
        <ele>650.872</ele>
        <time>2013-06-21T14:01:32Z</time>
      </trkpt>
      <trkpt lat="44.60489" lon="2.58357">
        <ele>651.135</ele>
        <time>2013-06-21T14:01:52Z</time>
      </trkpt>
      <trkpt lat="44.60483" lon="2.58352">
        <ele>651.221</ele>
        <time>2013-06-21T14:02:04Z</time>
      </trkpt>
      <trkpt lat="44.60484" lon="2.58343">
        <ele>651.183</ele>
        <time>2013-06-21T14:02:42Z</time>
      </trkpt>
      <trkpt lat="44.60485" lon="2.58346">
        <ele>651.768</ele>
        <time>2013-06-21T14:02:59Z</time>
      </trkpt>
      <trkpt lat="44.60482" lon="2.58349">
        <ele>651.457</ele>
        <time>2013-06-21T14:03:27Z</time>
      </trkpt>
      <trkpt lat="44.60487" lon="2.58339">
        <ele>651.143</ele>
        <time>2013-06-21T14:04:13Z</time>
      </trkpt>
      <trkpt lat="44.60485" lon="2.58343">
        <ele>651.078</ele>
        <time>2013-06-21T14:04:46Z</time>
      </trkpt>
      <trkpt lat="44.60488" lon="2.58353">
        <ele>650.918</ele>
        <time>2013-06-21T14:05:06Z</time>
      </trkpt>
      <trkpt lat="44.60484" lon="2.58347">
        <ele>651.299</ele>
        <time>2013-06-21T14:05:33Z</time>
      </trkpt>
      <trkpt lat="44.6048" lon="2.58339">
        <ele>651.202</ele>
        <time>2013-06-21T14:06:10Z</time>
      </trkpt>
      <trkpt lat="44.60481" lon="2.58338">
        <ele>651.357</ele>
        <time>2013-06-21T14:06:28Z</time>
      </trkpt>
      <trkpt lat="44.60484" lon="2.58341">
        <ele>651.213</ele>
        <time>2013-06-21T14:06:48Z</time>
      </trkpt>
      <trkpt lat="44.60484" lon="2.58343">
        <ele>650.581</ele>
        <time>2013-06-21T14:07:13Z</time>
      </trkpt>
      <trkpt lat="44.60483" lon="2.58344">
        <ele>650.712</ele>
        <time>2013-06-21T14:07:34Z</time>
      </trkpt>
      <trkpt lat="44.60489" lon="2.58334">
        <ele>651.066</ele>
        <time>2013-06-21T14:07:48Z</time>
      </trkpt>
      <trkpt lat="44.60487" lon="2.58336">
        <ele>651.106</ele>
        <time>2013-06-21T14:08:01Z</time>
      </trkpt>
      <trkpt lat="44.60484" lon="2.58338">
        <ele>650.663</ele>
        <time>2013-06-21T14:08:15Z</time>
      </trkpt>
      <trkpt lat="44.60488" lon="2.58347">
        <ele>650.155</ele>
        <time>2013-06-21T14:09:01Z</time>
      </trkpt>
      <trkpt lat="44.60487" lon="2.58352">
        <ele>650.468</ele>
        <time>2013-06-21T14:09:15Z</time>
      </trkpt>
      <trkpt lat="44.60485" lon="2.58353">
        <ele>649.256</ele>
        <time>2013-06-21T14:09:36Z</time>
      </trkpt>
      <trkpt lat="44.60485" lon="2.58348">
        <ele>649.874</ele>
        <time>2013-06-21T14:09:54Z</time>
      </trkpt>
      <trkpt lat="44.60485" lon="2.58351">
        <ele>648.978</ele>
        <time>2013-06-21T14:10:00Z</time>
      </trkpt>
    </trkseg>
  </trk>
</gpx>